Home > Products > Valid Products > TAF

000
FTUS46 KPQR 051459 AAB
TAFEUG
TAF AMD
KEUG 051459Z 0515/0612 17003KT P6SM SCT040 BKN070
     FM051700 26005KT P6SM FEW025 SCT030
     FM052100 29007KT P6SM FEW030
     FM060300 19004KT P6SM BKN120=



000
FTUS46 KPQR 051459 AAA
TAFAST
TAF AMD
KAST 051459Z 0515/0612 VRB03KT P6SM SCT015 BKN040
     FM051700 23008KT P6SM FEW030 SCT050
     FM060200 19005KT P6SM BKN050 OVC100=



000
FTUS46 KPQR 051459 AAA
TAFAST
TAF AMD
KAST 051459Z 0515/0612 VRB03KT P6SM SCT015 BKN040
     FM051700 23008KT P6SM FEW030 SCT050
     FM060200 19005KT P6SM BKN050 OVC100=



000
FTUS46 KPQR 051459 AAA
TAFSLE
TAF AMD
KSLE 051459Z 0515/0612 VRB03KT P6SM SCT040 BKN070
     FM051700 25005KT P6SM FEW025 SCT030
     FM052200 29007KT P6SM FEW030
     FM060300 19004KT P6SM BKN120=



000
FTUS46 KPQR 051459 AAA
TAFONP
TAF AMD
KONP 051459Z 0515/0612 VRB03KT P6SM FEW008 SCT012
     FM051700 29008KT P6SM FEW015 SCT025
     FM060200 19005KT P6SM BKN050 OVC100=



000
FTUS46 KPQR 051459 AAA
TAFONP
TAF AMD
KONP 051459Z 0515/0612 VRB03KT P6SM FEW008 SCT012
     FM051700 29008KT P6SM FEW015 SCT025
     FM060200 19005KT P6SM BKN050 OVC100=



000
FTUS46 KPQR 051459 AAA
TAFHIO
TAF AMD
KHIO 051459Z 0515/0612 VRB03KT 6SM BR FEW010 SCT050 BKN070
     FM051700 30006KT P6SM FEW025 SCT030
     FM060600 17003KT P6SM BKN120=



000
FTUS46 KPQR 051456 AAA
TAFPDX
TAF AMD
KPDX 051456Z 0515/0612 VRB03KT P6SM SCT050 BKN070
     FM051700 28006KT P6SM FEW025 SCT030
     FM060600 19004KT P6SM BKN120=



000
FTUS46 KPQR 051456 AAA
TAFPDX
TAF AMD
KPDX 051456Z 0515/0612 VRB03KT P6SM SCT050 BKN070
     FM051700 28006KT P6SM FEW025 SCT030
     FM060600 19004KT P6SM BKN120=



000
FTUS46 KPQR 051456 AAA
TAFPDX
TAF AMD
KPDX 051456Z 0515/0612 VRB03KT P6SM SCT050 BKN070
     FM051700 28006KT P6SM FEW025 SCT030
     FM060600 19004KT P6SM BKN120=



000
FTUS46 KPQR 051456 AAA
TAFPDX
TAF AMD
KPDX 051456Z 0515/0612 VRB03KT P6SM SCT050 BKN070
     FM051700 28006KT P6SM FEW025 SCT030
     FM060600 19004KT P6SM BKN120=



000
FTUS46 KPQR 051317 AAA
TAFEUG
TAF AMD
KEUG 051317Z 0513/0612 19004KT P6SM SCT040 BKN070
     FM051400 17003KT 6SM BR SCT010 SCT040 BKN070
      TEMPO 0514/0516 3SM BR SCT002 BKN010
     FM051700 26005KT P6SM FEW025 SCT030
     FM052100 29007KT P6SM FEW030
     FM060300 19004KT P6SM BKN120=



000
FTUS46 KPQR 051317 AAA
TAFEUG
TAF AMD
KEUG 051317Z 0513/0612 19004KT P6SM SCT040 BKN070
     FM051400 17003KT 6SM BR SCT010 SCT040 BKN070
      TEMPO 0514/0516 3SM BR SCT002 BKN010
     FM051700 26005KT P6SM FEW025 SCT030
     FM052100 29007KT P6SM FEW030
     FM060300 19004KT P6SM BKN120=



000
FTUS46 KPQR 051139
TAFONP
TAF
KONP 051139Z 0512/0612 10003KT 6SM BR FEW004
     FM051300 VRB03KT 4SM BR SCT004
     FM051600 VRB03KT P6SM FEW008 SCT012
     FM051700 29008KT P6SM FEW015 SCT025
     FM060200 19005KT P6SM BKN050 OVC100=



000
FTUS46 KPQR 051139
TAFTTD
TAF
KTTD 051139Z 0512/0612 00000KT P6SM SCT050 BKN070
     FM051400 VRB03KT 6SM BR FEW010 SCT050 BKN070
     FM051700 25005KT P6SM FEW025 SCT030
     FM060600 21004KT P6SM BKN120=



000
FTUS46 KPQR 051139
TAFAST
TAF
KAST 051139Z 0512/0612 VRB03KT 6SM BR FEW004 SCT015
     FM051300 VRB03KT 4SM BR SCT009 BKN015
     FM051600 VRB03KT P6SM SCT015 BKN025
     FM051700 23008KT P6SM FEW030 SCT050
     FM060200 19005KT P6SM BKN050 OVC100=



000
FTUS46 KPQR 051139
TAFEUG
TAF
KEUG 051139Z 0512/0612 19004KT P6SM SCT040 BKN070
     FM051400 17003KT 6SM BR SCT010 SCT040 BKN070
      TEMPO 0514/0516 5SM BR BKN010
     FM051700 26005KT P6SM FEW025 SCT030
     FM052100 29007KT P6SM FEW030
     FM060300 19004KT P6SM BKN120=



000
FTUS46 KPQR 051139
TAFSLE
TAF
KSLE 051139Z 0512/0612 18004KT P6SM SCT040 BKN070
     FM051400 VRB03KT 6SM BR SCT010 SCT040 BKN070
      TEMPO 0514/0516 5SM BR BKN015
     FM051700 25005KT P6SM FEW025 SCT030
     FM052200 29007KT P6SM FEW030
     FM060300 19004KT P6SM BKN120=



000
FTUS46 KPQR 051139
TAFPDX
TAF
KPDX 051139Z 0512/0612 21004KT P6SM SCT050 BKN070
     FM051400 VRB03KT 6SM BR FEW010 SCT050 BKN070
     FM051700 28006KT P6SM FEW025 SCT030
     FM060600 19004KT P6SM BKN120=



000
FTUS46 KPQR 051139
TAFHIO
TAF
KHIO 051139Z 0512/0612 VRB03KT P6SM SCT050 BKN070
     FM051400 VRB03KT 6SM BR FEW010 SCT050 BKN070
      TEMPO 0514/0516 5SM BR FEW002 SCT008
     FM051700 30006KT P6SM FEW025 SCT030
     FM060600 17003KT P6SM BKN120=



000
FTUS46 KPQR 051139
TAFAST
TAF
KAST 051139Z 0512/0612 VRB03KT 6SM BR FEW004 SCT015
     FM051300 VRB03KT 4SM BR SCT009 BKN015
     FM051600 VRB03KT P6SM SCT015 BKN025
     FM051700 23008KT P6SM FEW030 SCT050
     FM060200 19005KT P6SM BKN050 OVC100=



000
FTUS46 KPQR 051139
TAFSLE
TAF
KSLE 051139Z 0512/0612 18004KT P6SM SCT040 BKN070
     FM051400 VRB03KT 6SM BR SCT010 SCT040 BKN070
      TEMPO 0514/0516 5SM BR BKN015
     FM051700 25005KT P6SM FEW025 SCT030
     FM052200 29007KT P6SM FEW030
     FM060300 19004KT P6SM BKN120=



000
FTUS46 KPQR 051139
TAFONP
TAF
KONP 051139Z 0512/0612 10003KT 6SM BR FEW004
     FM051300 VRB03KT 4SM BR SCT004
     FM051600 VRB03KT P6SM FEW008 SCT012
     FM051700 29008KT P6SM FEW015 SCT025
     FM060200 19005KT P6SM BKN050 OVC100=



000
FTUS46 KPQR 051139
TAFTTD
TAF
KTTD 051139Z 0512/0612 00000KT P6SM SCT050 BKN070
     FM051400 VRB03KT 6SM BR FEW010 SCT050 BKN070
     FM051700 25005KT P6SM FEW025 SCT030
     FM060600 21004KT P6SM BKN120=



000
FTUS46 KPQR 051139
TAFEUG
TAF
KEUG 051139Z 0512/0612 19004KT P6SM SCT040 BKN070
     FM051400 17003KT 6SM BR SCT010 SCT040 BKN070
      TEMPO 0514/0516 5SM BR BKN010
     FM051700 26005KT P6SM FEW025 SCT030
     FM052100 29007KT P6SM FEW030
     FM060300 19004KT P6SM BKN120=



000
FTUS46 KPQR 051139
TAFHIO
TAF
KHIO 051139Z 0512/0612 VRB03KT P6SM SCT050 BKN070
     FM051400 VRB03KT 6SM BR FEW010 SCT050 BKN070
      TEMPO 0514/0516 5SM BR FEW002 SCT008
     FM051700 30006KT P6SM FEW025 SCT030
     FM060600 17003KT P6SM BKN120=



000
FTUS46 KPQR 051139
TAFPDX
TAF
KPDX 051139Z 0512/0612 21004KT P6SM SCT050 BKN070
     FM051400 VRB03KT 6SM BR FEW010 SCT050 BKN070
     FM051700 28006KT P6SM FEW025 SCT030
     FM060600 19004KT P6SM BKN120=



000
FTUS46 KPQR 051132 AAA
TAFONP
TAF AMD
KONP 051132Z 0512/0606 19004KT P6SM SCT040 BKN070
     FM051400 17003KT 6SM BR SCT010 SCT040 BKN070
      TEMPO 0514/0516 5SM BR BKN010
     FM051700 26005KT P6SM FEW025 SCT030
     FM052100 29008KT P6SM FEW030
     FM060200 19004KT P6SM BKN120=



000
FTUS46 KPQR 051132 AAA
TAFONP
TAF AMD
KONP 051132Z 0512/0606 19004KT P6SM SCT040 BKN070
     FM051400 17003KT 6SM BR SCT010 SCT040 BKN070
      TEMPO 0514/0516 5SM BR BKN010
     FM051700 26005KT P6SM FEW025 SCT030
     FM052100 29008KT P6SM FEW030
     FM060200 19004KT P6SM BKN120=



000
FTUS46 KPQR 051132 AAA
TAFONP
TAF AMD
KONP 051132Z 0512/0606 19004KT P6SM SCT040 BKN070
     FM051400 17003KT 6SM BR SCT010 SCT040 BKN070
      TEMPO 0514/0516 5SM BR BKN010
     FM051700 26005KT P6SM FEW025 SCT030
     FM052100 29008KT P6SM FEW030
     FM060200 19004KT P6SM BKN120=



000
FTUS46 KPQR 051129 AAA
TAFEUG
TAF AMD
KEUG 051129Z 0511/0606 19004KT P6SM SCT040 BKN070
     FM051400 18004KT 6SM BR SCT010 SCT040 BKN070
      TEMPO 0514/0516 5SM BR BKN015
     FM051700 25005KT P6SM FEW025 SCT030
     FM052100 29007KT P6SM FEW030=



000
FTUS46 KPQR 051129 AAA
TAFEUG
TAF AMD
KEUG 051129Z 0511/0606 19004KT P6SM SCT040 BKN070
     FM051400 18004KT 6SM BR SCT010 SCT040 BKN070
      TEMPO 0514/0516 5SM BR BKN015
     FM051700 25005KT P6SM FEW025 SCT030
     FM052100 29007KT P6SM FEW030=



000
FTUS46 KPQR 051128 AAA
TAFSLE
TAF AMD
KSLE 051128Z 0511/0606 18004KT P6SM SCT040 BKN070
     FM051400 VRB03KT 6SM BR SCT010 SCT040 BKN070
      TEMPO 0514/0516 5SM BR BKN015
     FM051700 25005KT P6SM FEW025 SCT030
     FM052200 29007KT P6SM FEW030=



000
FTUS46 KPQR 051128 AAA
TAFSLE
TAF AMD
KSLE 051128Z 0511/0606 18004KT P6SM SCT040 BKN070
     FM051400 VRB03KT 6SM BR SCT010 SCT040 BKN070
      TEMPO 0514/0516 5SM BR BKN015
     FM051700 25005KT P6SM FEW025 SCT030
     FM052200 29007KT P6SM FEW030=



000
FTUS46 KPQR 051128 AAA
TAFSLE
TAF AMD
KSLE 051128Z 0511/0606 18004KT P6SM SCT040 BKN070
     FM051400 VRB03KT 6SM BR SCT010 SCT040 BKN070
      TEMPO 0514/0516 5SM BR BKN015
     FM051700 25005KT P6SM FEW025 SCT030
     FM052200 29007KT P6SM FEW030=



000
FTUS46 KPQR 051128 AAA
TAFSLE
TAF AMD
KSLE 051128Z 0511/0606 18004KT P6SM SCT040 BKN070
     FM051400 VRB03KT 6SM BR SCT010 SCT040 BKN070
      TEMPO 0514/0516 5SM BR BKN015
     FM051700 25005KT P6SM FEW025 SCT030
     FM052200 29007KT P6SM FEW030=



000
FTUS46 KPQR 051118 AAA
TAFHIO
TAF AMD
KHIO 051118Z 0511/0606 VRB03KT P6SM SCT050 BKN070
     FM051400 VRB03KT 6SM BR FEW010 SCT050 BKN070
      TEMPO 0514/0516 5SM BR FEW002 SCT008
     FM051700 30006KT P6SM FEW025 SCT030=



000
FTUS46 KPQR 051118 AAA
TAFHIO
TAF AMD
KHIO 051118Z 0511/0606 VRB03KT P6SM SCT050 BKN070
     FM051400 VRB03KT 6SM BR FEW010 SCT050 BKN070
      TEMPO 0514/0516 5SM BR FEW002 SCT008
     FM051700 30006KT P6SM FEW025 SCT030=



000
FTUS46 KPQR 051118 AAA
TAFHIO
TAF AMD
KHIO 051118Z 0511/0606 VRB03KT P6SM SCT050 BKN070
     FM051400 VRB03KT 6SM BR FEW010 SCT050 BKN070
      TEMPO 0514/0516 5SM BR FEW002 SCT008
     FM051700 30006KT P6SM FEW025 SCT030=



000
FTUS46 KPQR 051118 AAA
TAFHIO
TAF AMD
KHIO 051118Z 0511/0606 VRB03KT P6SM SCT050 BKN070
     FM051400 VRB03KT 6SM BR FEW010 SCT050 BKN070
      TEMPO 0514/0516 5SM BR FEW002 SCT008
     FM051700 30006KT P6SM FEW025 SCT030=



000
FTUS46 KPQR 051116 AAA
TAFTTD
TAF AMD
KTTD 051116Z 0511/0606 00000KT P6SM SCT050 BKN070
     FM051400 VRB03KT 6SM BR FEW010 SCT050 BKN070
     FM051700 25005KT P6SM FEW025 SCT030=



000
FTUS46 KPQR 051116 AAA
TAFTTD
TAF AMD
KTTD 051116Z 0511/0606 00000KT P6SM SCT050 BKN070
     FM051400 VRB03KT 6SM BR FEW010 SCT050 BKN070
     FM051700 25005KT P6SM FEW025 SCT030=



000
FTUS46 KPQR 051116 AAA
TAFTTD
TAF AMD
KTTD 051116Z 0511/0606 00000KT P6SM SCT050 BKN070
     FM051400 VRB03KT 6SM BR FEW010 SCT050 BKN070
     FM051700 25005KT P6SM FEW025 SCT030=



000
FTUS46 KPQR 051113 AAB
TAFPDX
TAF AMD
KPDX 051113Z 0511/0606 21004KT P6SM SCT050 BKN070
     FM051400 VRB03KT 6SM BR FEW010 SCT050 BKN070
     FM051700 28006KT P6SM FEW025 SCT030=



000
FTUS46 KPQR 051113 AAB
TAFPDX
TAF AMD
KPDX 051113Z 0511/0606 21004KT P6SM SCT050 BKN070
     FM051400 VRB03KT 6SM BR FEW010 SCT050 BKN070
     FM051700 28006KT P6SM FEW025 SCT030=



000
FTUS46 KPQR 051113 AAB
TAFPDX
TAF AMD
KPDX 051113Z 0511/0606 21004KT P6SM SCT050 BKN070
     FM051400 VRB03KT 6SM BR FEW010 SCT050 BKN070
     FM051700 28006KT P6SM FEW025 SCT030=



000
FTUS46 KPQR 051113 AAB
TAFPDX
TAF AMD
KPDX 051113Z 0511/0606 21004KT P6SM SCT050 BKN070
     FM051400 VRB03KT 6SM BR FEW010 SCT050 BKN070
     FM051700 28006KT P6SM FEW025 SCT030=



000
FTUS46 KPQR 050805 AAA
TAFPDX
TAF AMD
KPDX 050805Z 0508/0606 32004KT P6SM FEW050
     FM051100 VRB03KT 4SM BR BKN006
     FM051800 26005KT P6SM SCT006
     FM052000 29006KT P6SM SCT060=



000
FTUS46 KPQR 050520
TAFAST
TAF
KAST 050520Z 0506/0606 32005KT P6SM FEW030 SCT050
     FM051000 VRB03KT 4SM BR SCT004 BKN012
     FM051300 VRB03KT 1SM BR OVC004
     FM052100 26008KT P6SM BKN060=



000
FTUS46 KPQR 050520
TAFPDX
TAF
KPDX 050520Z 0506/0606 29010KT P6SM FEW050
     FM051100 VRB03KT 4SM BR OVC006
     FM051800 26005KT P6SM SCT006
     FM052000 29006KT P6SM SCT060=



000
FTUS46 KPQR 050520
TAFSLE
TAF
KSLE 050520Z 0506/0606 31005KT P6SM SCT070
     FM051000 VRB03KT P6SM SCT025
     FM051500 VRB03KT P6SM BKN015
     FM051800 22005KT P6SM SCT060=



000
FTUS46 KPQR 050520
TAFPDX
TAF
KPDX 050520Z 0506/0606 29010KT P6SM FEW050
     FM051100 VRB03KT 4SM BR OVC006
     FM051800 26005KT P6SM SCT006
     FM052000 29006KT P6SM SCT060=



000
FTUS46 KPQR 050520
TAFHIO
TAF
KHIO 050520Z 0506/0606 30005KT P6SM SCT050
     FM051500 VRB03KT 4SM BR BKN003
     FM051800 26005KT P6SM SCT030
     FM052000 29006KT P6SM SCT060=



000
FTUS46 KPQR 050520
TAFONP
TAF
KONP 050520Z 0506/0606 03003KT P6SM SCT030
     FM051000 00000KT P6SM SCT015
     FM051800 28006KT P6SM BKN250=



000
FTUS46 KPQR 050520
TAFHIO
TAF
KHIO 050520Z 0506/0606 30005KT P6SM SCT050
     FM051500 VRB03KT 4SM BR BKN003
     FM051800 26005KT P6SM SCT030
     FM052000 29006KT P6SM SCT060=



000
FTUS46 KPQR 050520
TAFEUG
TAF
KEUG 050520Z 0506/0606 30008KT P6SM SCT080
     FM051300 VRB03KT 5SM BR OVC020
     FM051800 29005KT P6SM SKC=



000
FTUS46 KPQR 050520
TAFTTD
TAF
KTTD 050520Z 0506/0606 25003KT P6SM FEW050
     FM051300 VRB03KT 6SM BR OVC010
     FM051800 26005KT P6SM SCT010
     FM052000 29006KT P6SM SCT060=



000
FTUS46 KPQR 050520
TAFSLE
TAF
KSLE 050520Z 0506/0606 31005KT P6SM SCT070
     FM051000 VRB03KT P6SM SCT025
     FM051500 VRB03KT P6SM BKN015
     FM051800 22005KT P6SM SCT060=



000
FTUS46 KPQR 050520
TAFHIO
TAF
KHIO 050520Z 0506/0606 30005KT P6SM SCT050
     FM051500 VRB03KT 4SM BR BKN003
     FM051800 26005KT P6SM SCT030
     FM052000 29006KT P6SM SCT060=



000
FTUS46 KPQR 050520
TAFTTD
TAF
KTTD 050520Z 0506/0606 25003KT P6SM FEW050
     FM051300 VRB03KT 6SM BR OVC010
     FM051800 26005KT P6SM SCT010
     FM052000 29006KT P6SM SCT060=



000
FTUS46 KPQR 050520
TAFPDX
TAF
KPDX 050520Z 0506/0606 29010KT P6SM FEW050
     FM051100 VRB03KT 4SM BR OVC006
     FM051800 26005KT P6SM SCT006
     FM052000 29006KT P6SM SCT060=



000
FTUS46 KPQR 050253 AAB
TAFPDX
TAF AMD
KPDX 050253Z 0503/0524 29010KT P6SM FEW050
     FM051100 VRB03KT 4SM BR OVC010
     FM051800 26005KT P6SM SCT030
     FM052000 29006KT P6SM SKC=



000
FTUS46 KPQR 050253 AAB
TAFPDX
TAF AMD
KPDX 050253Z 0503/0524 29010KT P6SM FEW050
     FM051100 VRB03KT 4SM BR OVC010
     FM051800 26005KT P6SM SCT030
     FM052000 29006KT P6SM SKC=



000
FTUS46 KPQR 042359 AAA
TAFPDX
TAF AMD
KPDX 042359Z 0500/0524 29012KT P6SM VCSH SCT035
     FM050300 34005KT P6SM SCT050
     FM051100 VRB03KT 4SM BR OVC010
     FM051800 26005KT P6SM SCT030
     FM052000 29006KT P6SM SKC=



000
FTUS46 KPQR 042359 AAA
TAFPDX
TAF AMD
KPDX 042359Z 0500/0524 29012KT P6SM VCSH SCT035
     FM050300 34005KT P6SM SCT050
     FM051100 VRB03KT 4SM BR OVC010
     FM051800 26005KT P6SM SCT030
     FM052000 29006KT P6SM SKC=



000
FTUS46 KPQR 042359 AAA
TAFPDX
TAF AMD
KPDX 042359Z 0500/0524 29012KT P6SM VCSH SCT035
     FM050300 34005KT P6SM SCT050
     FM051100 VRB03KT 4SM BR OVC010
     FM051800 26005KT P6SM SCT030
     FM052000 29006KT P6SM SKC=



000
FTUS46 KPQR 042359 AAA
TAFPDX
TAF AMD
KPDX 042359Z 0500/0524 29012KT P6SM VCSH SCT035
     FM050300 34005KT P6SM SCT050
     FM051100 VRB03KT 4SM BR OVC010
     FM051800 26005KT P6SM SCT030
     FM052000 29006KT P6SM SKC=



000
FTUS46 KPQR 042333
TAFHIO
TAF
KHIO 042333Z 0500/0524 30010KT P6SM VCSH FEW015 BKN035
     FM050300 32005KT P6SM SCT050
     FM051300 VRB03KT 4SM BR OVC020
     FM051800 26005KT P6SM SCT030
     FM052000 29006KT P6SM SKC=



000
FTUS46 KPQR 042333
TAFAST
TAF
KAST 042333Z 0500/0524 30010KT P6SM VCSH SCT040
     FM050300 32005KT P6SM FEW030 SCT050
     FM051000 VRB03KT 4SM BR SCT004 BKN012
     FM051300 VRB03KT 1SM BR OVC004
     FM052100 26008KT P6SM BKN060=



000
FTUS46 KPQR 042333
TAFSLE
TAF
KSLE 042333Z 0500/0524 34008KT P6SM VCSH FEW020 SCT050
     FM050300 31005KT P6SM SCT050
     FM051000 VRB03KT P6SM SCT025
     FM051800 22005KT P6SM BKN100=



000
FTUS46 KPQR 042333
TAFTTD
TAF
KTTD 042333Z 0500/0524 31005KT P6SM VCSH FEW030 SCT050
     FM050300 29005KT P6SM SCT050
     FM051100 VRB03KT 6SM BR OVC015
     FM051700 21004KT 6SM BR OVC035
     FM051800 25004KT P6SM OVC050
     FM052100 26005KT P6SM BKN100=



000
FTUS46 KPQR 042333
TAFAST
TAF
KAST 042333Z 0500/0524 30010KT P6SM VCSH SCT040
     FM050300 32005KT P6SM FEW030 SCT050
     FM051000 VRB03KT 4SM BR SCT004 BKN012
     FM051300 VRB03KT 1SM BR OVC004
     FM052100 26008KT P6SM BKN060=



000
FTUS46 KPQR 042333
TAFONP
TAF
KONP 042333Z 0500/0524 33011KT P6SM VCSH FEW040
     FM050300 36005KT P6SM SCT050
     FM051000 VRB03KT P6SM SCT015
     FM051800 28006KT P6SM BKN250=



000
FTUS46 KPQR 042333
TAFEUG
TAF
KEUG 042333Z 0500/0524 30010KT P6SM VCSH SCT035 SCT050
     FM050300 30008KT P6SM SCT050
     FM051000 VRB03KT 5SM BR OVC020
     FM051800 29005KT P6SM BKN250=



000
FTUS46 KPQR 042333
TAFPDX
TAF
KPDX 042333Z 0500/0524 33008KT P6SM VCSH SCT035
     FM050300 34005KT P6SM SCT050
     FM051100 VRB03KT 4SM BR OVC010
     FM051800 26005KT P6SM SCT030
     FM052000 29006KT P6SM SKC=



000
FTUS46 KPQR 042333
TAFHIO
TAF
KHIO 042333Z 0500/0524 30010KT P6SM VCSH FEW015 BKN035
     FM050300 32005KT P6SM SCT050
     FM051300 VRB03KT 4SM BR OVC020
     FM051800 26005KT P6SM SCT030
     FM052000 29006KT P6SM SKC=



000
FTUS46 KPQR 042333
TAFPDX
TAF
KPDX 042333Z 0500/0524 33008KT P6SM VCSH SCT035
     FM050300 34005KT P6SM SCT050
     FM051100 VRB03KT 4SM BR OVC010
     FM051800 26005KT P6SM SCT030
     FM052000 29006KT P6SM SKC=



000
FTUS46 KPQR 042333
TAFONP
TAF
KONP 042333Z 0500/0524 33011KT P6SM VCSH FEW040
     FM050300 36005KT P6SM SCT050
     FM051000 VRB03KT P6SM SCT015
     FM051800 28006KT P6SM BKN250=



000
FTUS46 KPQR 042333
TAFTTD
TAF
KTTD 042333Z 0500/0524 31005KT P6SM VCSH FEW030 SCT050
     FM050300 29005KT P6SM SCT050
     FM051100 VRB03KT 6SM BR OVC015
     FM051700 21004KT 6SM BR OVC035
     FM051800 25004KT P6SM OVC050
     FM052100 26005KT P6SM BKN100=



000
FTUS46 KPQR 042333
TAFSLE
TAF
KSLE 042333Z 0500/0524 34008KT P6SM VCSH FEW020 SCT050
     FM050300 31005KT P6SM SCT050
     FM051000 VRB03KT P6SM SCT025
     FM051800 22005KT P6SM BKN100=



000
FTUS46 KPQR 042333
TAFHIO
TAF
KHIO 042333Z 0500/0524 30010KT P6SM VCSH FEW015 BKN035
     FM050300 32005KT P6SM SCT050
     FM051300 VRB03KT 4SM BR OVC020
     FM051800 26005KT P6SM SCT030
     FM052000 29006KT P6SM SKC=



000
FTUS46 KPQR 042333
TAFEUG
TAF
KEUG 042333Z 0500/0524 30010KT P6SM VCSH SCT035 SCT050
     FM050300 30008KT P6SM SCT050
     FM051000 VRB03KT 5SM BR OVC020
     FM051800 29005KT P6SM BKN250=



000
FTUS46 KPQR 042333
TAFEUG
TAF
KEUG 042333Z 0500/0524 30010KT P6SM VCSH SCT035 SCT050
     FM050300 30008KT P6SM SCT050
     FM051000 VRB03KT 5SM BR OVC020
     FM051800 29005KT P6SM BKN250=



000
FTUS46 KPQR 042333
TAFPDX
TAF
KPDX 042333Z 0500/0524 33008KT P6SM VCSH SCT035
     FM050300 34005KT P6SM SCT050
     FM051100 VRB03KT 4SM BR OVC010
     FM051800 26005KT P6SM SCT030
     FM052000 29006KT P6SM SKC=



000
FTUS46 KPQR 042333
TAFHIO
TAF
KHIO 042333Z 0500/0524 30010KT P6SM VCSH FEW015 BKN035
     FM050300 32005KT P6SM SCT050
     FM051300 VRB03KT 4SM BR OVC020
     FM051800 26005KT P6SM SCT030
     FM052000 29006KT P6SM SKC=



000
FTUS46 KPQR 042333
TAFONP
TAF
KONP 042333Z 0500/0524 33011KT P6SM VCSH FEW040
     FM050300 36005KT P6SM SCT050
     FM051000 VRB03KT P6SM SCT015
     FM051800 28006KT P6SM BKN250=



000
FTUS46 KPQR 042333
TAFAST
TAF
KAST 042333Z 0500/0524 30010KT P6SM VCSH SCT040
     FM050300 32005KT P6SM FEW030 SCT050
     FM051000 VRB03KT 4SM BR SCT004 BKN012
     FM051300 VRB03KT 1SM BR OVC004
     FM052100 26008KT P6SM BKN060=



000
FTUS46 KPQR 042333
TAFSLE
TAF
KSLE 042333Z 0500/0524 34008KT P6SM VCSH FEW020 SCT050
     FM050300 31005KT P6SM SCT050
     FM051000 VRB03KT P6SM SCT025
     FM051800 22005KT P6SM BKN100=



000
FTUS46 KPQR 042333
TAFSLE
TAF
KSLE 042333Z 0500/0524 34008KT P6SM VCSH FEW020 SCT050
     FM050300 31005KT P6SM SCT050
     FM051000 VRB03KT P6SM SCT025
     FM051800 22005KT P6SM BKN100=



000
FTUS46 KPQR 042333
TAFTTD
TAF
KTTD 042333Z 0500/0524 31005KT P6SM VCSH FEW030 SCT050
     FM050300 29005KT P6SM SCT050
     FM051100 VRB03KT 6SM BR OVC015
     FM051700 21004KT 6SM BR OVC035
     FM051800 25004KT P6SM OVC050
     FM052100 26005KT P6SM BKN100=



000
FTUS46 KPQR 042333
TAFEUG
TAF
KEUG 042333Z 0500/0524 30010KT P6SM VCSH SCT035 SCT050
     FM050300 30008KT P6SM SCT050
     FM051000 VRB03KT 5SM BR OVC020
     FM051800 29005KT P6SM BKN250=



000
FTUS46 KPQR 042257 AAA
TAFAST
TAF AMD
KAST 042257Z 0423/0518 28012KT 3SM RA OVC035
     FM042330 30010KT P6SM VCSH SCT040
     FM050300 32005KT P6SM FEW030 SCT050
     FM051000 VRB03KT 4SM BR SCT004 BKN012
     FM051300 VRB03KT 1SM BR OVC004=



000
FTUS46 KPQR 042257 AAA
TAFAST
TAF AMD
KAST 042257Z 0423/0518 28012KT 3SM RA OVC035
     FM042330 30010KT P6SM VCSH SCT040
     FM050300 32005KT P6SM FEW030 SCT050
     FM051000 VRB03KT 4SM BR SCT004 BKN012
     FM051300 VRB03KT 1SM BR OVC004=



000
FTUS46 KPQR 042054 AAA
TAFPDX
TAF AMD
KPDX 042054Z 0421/0518 33008KT P6SM VCSH SCT035
     FM050300 34005KT P6SM SCT050
     FM051100 VRB03KT 4SM BR OVC015=



000
FTUS46 KPQR 042054 AAA
TAFPDX
TAF AMD
KPDX 042054Z 0421/0518 33008KT P6SM VCSH SCT035
     FM050300 34005KT P6SM SCT050
     FM051100 VRB03KT 4SM BR OVC015=



000
FTUS46 KPQR 041803 AAA
TAFSLE
TAF AMD
KSLE 041803Z 0418/0518 VRB03KT P6SM BKN012
     FM041900 36005KT P6SM SCT012 SCT025
     FM042100 34008KT P6SM VCSH FEW020 SCT050
     FM050300 31005KT P6SM SCT050
     FM051000 VRB03KT P6SM SCT025=



000
FTUS46 KPQR 041803 AAA
TAFSLE
TAF AMD
KSLE 041803Z 0418/0518 VRB03KT P6SM BKN012
     FM041900 36005KT P6SM SCT012 SCT025
     FM042100 34008KT P6SM VCSH FEW020 SCT050
     FM050300 31005KT P6SM SCT050
     FM051000 VRB03KT P6SM SCT025=



000
FTUS46 KPQR 041803 AAA
TAFSLE
TAF AMD
KSLE 041803Z 0418/0518 VRB03KT P6SM BKN012
     FM041900 36005KT P6SM SCT012 SCT025
     FM042100 34008KT P6SM VCSH FEW020 SCT050
     FM050300 31005KT P6SM SCT050
     FM051000 VRB03KT P6SM SCT025=



000
FTUS46 KPQR 041803 AAA
TAFSLE
TAF AMD
KSLE 041803Z 0418/0518 VRB03KT P6SM BKN012
     FM041900 36005KT P6SM SCT012 SCT025
     FM042100 34008KT P6SM VCSH FEW020 SCT050
     FM050300 31005KT P6SM SCT050
     FM051000 VRB03KT P6SM SCT025=



000
FTUS46 KPQR 041801 AAA
TAFHIO
TAF AMD
KHIO 041801Z 0418/0518 VRB03KT 5SM BR SCT008 BKN012
     FM042000 36007KT P6SM VCSH FEW015 BKN035
     FM050300 32005KT P6SM SCT050
     FM051300 VRB03KT 4SM BR OVC020=



000
FTUS46 KPQR 041801 AAA
TAFHIO
TAF AMD
KHIO 041801Z 0418/0518 VRB03KT 5SM BR SCT008 BKN012
     FM042000 36007KT P6SM VCSH FEW015 BKN035
     FM050300 32005KT P6SM SCT050
     FM051300 VRB03KT 4SM BR OVC020=



000
FTUS46 KPQR 041801 AAA
TAFHIO
TAF AMD
KHIO 041801Z 0418/0518 VRB03KT 5SM BR SCT008 BKN012
     FM042000 36007KT P6SM VCSH FEW015 BKN035
     FM050300 32005KT P6SM SCT050
     FM051300 VRB03KT 4SM BR OVC020=



000
FTUS46 KPQR 041741
TAFONP
TAF
KONP 041741Z 0418/0518 34009KT P6SM VCSH SKC
     FM042100 34011G17KT P6SM VCSH FEW030 SCT050
     FM050300 36005KT P6SM SCT050
     FM051000 VRB03KT P6SM SCT015=



000
FTUS46 KPQR 041741
TAFAST
TAF
KAST 041741Z 0418/0518 VRB03KT P6SM VCSH SCT005 SCT035
     FM050300 32005KT P6SM FEW030 SCT050
     FM051000 VRB03KT 4SM BR SCT004 BKN012
     FM051300 VRB03KT 1SM BR OVC004=



000
FTUS46 KPQR 041741
TAFSLE
TAF
KSLE 041741Z 0418/0518 VRB03KT P6SM SCT006 SCT020
      TEMPO 0418/0420 BKN006
     FM042100 34008KT P6SM VCSH FEW020 SCT050
     FM050300 31005KT P6SM SCT050
     FM051000 VRB03KT P6SM SCT025=



000
FTUS46 KPQR 041741
TAFAST
TAF
KAST 041741Z 0418/0518 VRB03KT P6SM VCSH SCT005 SCT035
     FM050300 32005KT P6SM FEW030 SCT050
     FM051000 VRB03KT 4SM BR SCT004 BKN012
     FM051300 VRB03KT 1SM BR OVC004=



000
FTUS46 KPQR 041741
TAFEUG
TAF
KEUG 041741Z 0418/0518 31006KT P6SM FEW020 SCT050
     FM042100 33008KT P6SM VCSH SCT035 SCT050
     FM050300 30008KT P6SM SCT050
     FM051000 VRB03KT 5SM BR OVC020=



000
FTUS46 KPQR 041741
TAFPDX
TAF
KPDX 041741Z 0418/0518 31005KT P6SM SCT009 OVC015
     FM042000 33008KT P6SM VCSH FEW015 BKN035
     FM050300 34005KT P6SM SCT050
     FM051100 VRB03KT 4SM BR OVC015=



000
FTUS46 KPQR 041741
TAFONP
TAF
KONP 041741Z 0418/0518 34009KT P6SM VCSH SKC
     FM042100 34011G17KT P6SM VCSH FEW030 SCT050
     FM050300 36005KT P6SM SCT050
     FM051000 VRB03KT P6SM SCT015=



000
FTUS46 KPQR 041741
TAFPDX
TAF
KPDX 041741Z 0418/0518 31005KT P6SM SCT009 OVC015
     FM042000 33008KT P6SM VCSH FEW015 BKN035
     FM050300 34005KT P6SM SCT050
     FM051100 VRB03KT 4SM BR OVC015=



000
FTUS46 KPQR 041741
TAFTTD
TAF
KTTD 041741Z 0418/0518 VRB03KT P6SM SCT015 OVC035
      TEMPO 0418/0420 BKN015
     FM042000 31005KT P6SM VCSH FEW030 SCT050
     FM050300 29005KT P6SM SCT050
     FM051100 VRB03KT 6SM BR OVC015=



000
FTUS46 KPQR 041741
TAFHIO
TAF
KHIO 041741Z 0418/0518 VRB03KT 6SM BR SCT008 BKN012
      TEMPO 0418/0420 1SM BR OVC008
     FM042000 36007KT P6SM VCSH FEW015 BKN035
     FM050300 32005KT P6SM SCT050
     FM051300 VRB03KT 4SM BR OVC020=



000
FTUS46 KPQR 041741
TAFHIO
TAF
KHIO 041741Z 0418/0518 VRB03KT 6SM BR SCT008 BKN012
      TEMPO 0418/0420 1SM BR OVC008
     FM042000 36007KT P6SM VCSH FEW015 BKN035
     FM050300 32005KT P6SM SCT050
     FM051300 VRB03KT 4SM BR OVC020=



000
FTUS46 KPQR 041741
TAFEUG
TAF
KEUG 041741Z 0418/0518 31006KT P6SM FEW020 SCT050
     FM042100 33008KT P6SM VCSH SCT035 SCT050
     FM050300 30008KT P6SM SCT050
     FM051000 VRB03KT 5SM BR OVC020=



000
FTUS46 KPQR 041741
TAFTTD
TAF
KTTD 041741Z 0418/0518 VRB03KT P6SM SCT015 OVC035
      TEMPO 0418/0420 BKN015
     FM042000 31005KT P6SM VCSH FEW030 SCT050
     FM050300 29005KT P6SM SCT050
     FM051100 VRB03KT 6SM BR OVC015=



000
FTUS46 KPQR 041741
TAFSLE
TAF
KSLE 041741Z 0418/0518 VRB03KT P6SM SCT006 SCT020
      TEMPO 0418/0420 BKN006
     FM042100 34008KT P6SM VCSH FEW020 SCT050
     FM050300 31005KT P6SM SCT050
     FM051000 VRB03KT P6SM SCT025=



000
FTUS46 KPQR 041622 AAB
TAFAST
TAF AMD
KAST 041622Z 0416/0512 13003KT 1/4SM FG VV002
     FM041700 VRB05KT 3SM BR SCT008 BKN015
     FM041800 30009KT P6SM VCSH FEW030 SCT050=



000
FTUS46 KPQR 041622 AAC
TAFTTD
TAF AMD
KTTD 041622Z 0416/0512 VRB03KT 6SM BR SCT009 OVC015
     FM041700 VRB03KT 4SM BR SCT015 OVC025
     FM041900 31005KT P6SM VCSH FEW030 SCT050=



000
FTUS46 KPQR 041622 AAB
TAFHIO
TAF AMD
KHIO 041622Z 0416/0512 VRB03KT 4SM BR SCT002 BKN006
      TEMPO 0416/0418 1/2SM FG VV002
     FM041800 VRB03KT P6SM SCT008 BKN012
     FM041900 36005KT P6SM VCSH SCT050=



000
FTUS46 KPQR 041622 AAB
TAFPDX
TAF AMD
KPDX 041622Z 0416/0512 VRB03KT 6SM BR BKN004 OVC010
     FM041700 VRB03KT P6SM SCT004 BKN012
     FM041800 31005KT P6SM VCSH FEW025 SCT050=



000
FTUS46 KPQR 041622 AAB
TAFAST
TAF AMD
KAST 041622Z 0416/0512 13003KT 1/4SM FG VV002
     FM041700 VRB05KT 3SM BR SCT008 BKN015
     FM041800 30009KT P6SM VCSH FEW030 SCT050=



000
FTUS46 KPQR 041622 AAB
TAFHIO
TAF AMD
KHIO 041622Z 0416/0512 VRB03KT 4SM BR SCT002 BKN006
      TEMPO 0416/0418 1/2SM FG VV002
     FM041800 VRB03KT P6SM SCT008 BKN012
     FM041900 36005KT P6SM VCSH SCT050=



000
FTUS46 KPQR 041622 AAB
TAFPDX
TAF AMD
KPDX 041622Z 0416/0512 VRB03KT 6SM BR BKN004 OVC010
     FM041700 VRB03KT P6SM SCT004 BKN012
     FM041800 31005KT P6SM VCSH FEW025 SCT050=



000
FTUS46 KPQR 041622 AAA
TAFSLE
TAF AMD
KSLE 041622Z 0416/0512 VRB03KT P6SM BKN006 OVC015
     FM041800 31006KT P6SM VCSH FEW030 SCT060=



000
FTUS46 KPQR 041622 AAB
TAFHIO
TAF AMD
KHIO 041622Z 0416/0512 VRB03KT 4SM BR SCT002 BKN006
      TEMPO 0416/0418 1/2SM FG VV002
     FM041800 VRB03KT P6SM SCT008 BKN012
     FM041900 36005KT P6SM VCSH SCT050=



000
FTUS46 KPQR 041622 AAC
TAFTTD
TAF AMD
KTTD 041622Z 0416/0512 VRB03KT 6SM BR SCT009 OVC015
     FM041700 VRB03KT 4SM BR SCT015 OVC025
     FM041900 31005KT P6SM VCSH FEW030 SCT050=



000
FTUS46 KPQR 041622 AAB
TAFAST
TAF AMD
KAST 041622Z 0416/0512 13003KT 1/4SM FG VV002
     FM041700 VRB05KT 3SM BR SCT008 BKN015
     FM041800 30009KT P6SM VCSH FEW030 SCT050=



000
FTUS46 KPQR 041622 AAC
TAFTTD
TAF AMD
KTTD 041622Z 0416/0512 VRB03KT 6SM BR SCT009 OVC015
     FM041700 VRB03KT 4SM BR SCT015 OVC025
     FM041900 31005KT P6SM VCSH FEW030 SCT050=



000
FTUS46 KPQR 041622 AAB
TAFPDX
TAF AMD
KPDX 041622Z 0416/0512 VRB03KT 6SM BR BKN004 OVC010
     FM041700 VRB03KT P6SM SCT004 BKN012
     FM041800 31005KT P6SM VCSH FEW025 SCT050=



000
FTUS46 KPQR 041622 AAA
TAFSLE
TAF AMD
KSLE 041622Z 0416/0512 VRB03KT P6SM BKN006 OVC015
     FM041800 31006KT P6SM VCSH FEW030 SCT060=



000
FTUS46 KPQR 041622 AAA
TAFSLE
TAF AMD
KSLE 041622Z 0416/0512 VRB03KT P6SM BKN006 OVC015
     FM041800 31006KT P6SM VCSH FEW030 SCT060=



000
FTUS46 KPQR 041622 AAA
TAFSLE
TAF AMD
KSLE 041622Z 0416/0512 VRB03KT P6SM BKN006 OVC015
     FM041800 31006KT P6SM VCSH FEW030 SCT060=



000
FTUS46 KPQR 041622 AAB
TAFHIO
TAF AMD
KHIO 041622Z 0416/0512 VRB03KT 4SM BR SCT002 BKN006
      TEMPO 0416/0418 1/2SM FG VV002
     FM041800 VRB03KT P6SM SCT008 BKN012
     FM041900 36005KT P6SM VCSH SCT050=



000
FTUS46 KPQR 041622 AAB
TAFAST
TAF AMD
KAST 041622Z 0416/0512 13003KT 1/4SM FG VV002
     FM041700 VRB05KT 3SM BR SCT008 BKN015
     FM041800 30009KT P6SM VCSH FEW030 SCT050=



000
FTUS46 KPQR 041622 AAC
TAFTTD
TAF AMD
KTTD 041622Z 0416/0512 VRB03KT 6SM BR SCT009 OVC015
     FM041700 VRB03KT 4SM BR SCT015 OVC025
     FM041900 31005KT P6SM VCSH FEW030 SCT050=



000
FTUS46 KPQR 041622 AAB
TAFPDX
TAF AMD
KPDX 041622Z 0416/0512 VRB03KT 6SM BR BKN004 OVC010
     FM041700 VRB03KT P6SM SCT004 BKN012
     FM041800 31005KT P6SM VCSH FEW025 SCT050=



000
FTUS46 KPQR 041458 AAB
TAFTTD
TAF AMD
KTTD 041458Z 0415/0512 VRB03KT 6SM BR BKN009 OVC015
     FM041700 VRB03KT 4SM BR SCT015 OVC025
     FM041900 31005KT P6SM VCSH FEW030 SCT050=



000
FTUS46 KPQR 041458 AAB
TAFTTD
TAF AMD
KTTD 041458Z 0415/0512 VRB03KT 6SM BR BKN009 OVC015
     FM041700 VRB03KT 4SM BR SCT015 OVC025
     FM041900 31005KT P6SM VCSH FEW030 SCT050=



000
FTUS46 KPQR 041457 AAA
TAFHIO
TAF AMD
KHIO 041457Z 0415/0512 VRB03KT 6SM BR FEW002 SCT004
      TEMPO 0415/0416 1/4SM FG VV002
     FM041600 VRB03KT 4SM BR SCT002 BKN006
     FM041700 VRB03KT P6SM SCT008 BKN012
     FM041800 36005KT P6SM VCSH SCT050=



000
FTUS46 KPQR 041457 AAA
TAFHIO
TAF AMD
KHIO 041457Z 0415/0512 VRB03KT 6SM BR FEW002 SCT004
      TEMPO 0415/0416 1/4SM FG VV002
     FM041600 VRB03KT 4SM BR SCT002 BKN006
     FM041700 VRB03KT P6SM SCT008 BKN012
     FM041800 36005KT P6SM VCSH SCT050=



000
FTUS46 KPQR 041457 AAA
TAFHIO
TAF AMD
KHIO 041457Z 0415/0512 VRB03KT 6SM BR FEW002 SCT004
      TEMPO 0415/0416 1/4SM FG VV002
     FM041600 VRB03KT 4SM BR SCT002 BKN006
     FM041700 VRB03KT P6SM SCT008 BKN012
     FM041800 36005KT P6SM VCSH SCT050=



000
FTUS46 KPQR 041457 AAA
TAFHIO
TAF AMD
KHIO 041457Z 0415/0512 VRB03KT 6SM BR FEW002 SCT004
      TEMPO 0415/0416 1/4SM FG VV002
     FM041600 VRB03KT 4SM BR SCT002 BKN006
     FM041700 VRB03KT P6SM SCT008 BKN012
     FM041800 36005KT P6SM VCSH SCT050=



000
FTUS46 KPQR 041456 AAA
TAFPDX
TAF AMD
KPDX 041456Z 0415/0512 33004KT 4SM BR BKN003 OVC008
     FM041600 VRB03KT 6SM BR SCT003 BKN008
     FM041700 VRB03KT P6SM SCT008 BKN012
     FM041800 31005KT P6SM VCSH FEW025 SCT050=



000
FTUS46 KPQR 041344 AAA
TAFAST
TAF AMD
KAST 041344Z 0414/0512 13003KT 6SM BR FEW002
      TEMPO 0414/0416 1SM BR BKN002
     FM041600 VRB04KT 5SM BR SCT004 BKN008
     FM041700 VRB05KT P6SM SCT008 BKN015
     FM041800 30009KT P6SM VCSH FEW030 SCT050=



000
FTUS46 KPQR 041344 AAA
TAFAST
TAF AMD
KAST 041344Z 0414/0512 13003KT 6SM BR FEW002
      TEMPO 0414/0416 1SM BR BKN002
     FM041600 VRB04KT 5SM BR SCT004 BKN008
     FM041700 VRB05KT P6SM SCT008 BKN015
     FM041800 30009KT P6SM VCSH FEW030 SCT050=



000
FTUS46 KPQR 041344 AAA
TAFAST
TAF AMD
KAST 041344Z 0414/0512 13003KT 6SM BR FEW002
      TEMPO 0414/0416 1SM BR BKN002
     FM041600 VRB04KT 5SM BR SCT004 BKN008
     FM041700 VRB05KT P6SM SCT008 BKN015
     FM041800 30009KT P6SM VCSH FEW030 SCT050=



000
FTUS46 KPQR 041344 AAA
TAFAST
TAF AMD
KAST 041344Z 0414/0512 13003KT 6SM BR FEW002
      TEMPO 0414/0416 1SM BR BKN002
     FM041600 VRB04KT 5SM BR SCT004 BKN008
     FM041700 VRB05KT P6SM SCT008 BKN015
     FM041800 30009KT P6SM VCSH FEW030 SCT050=



000
FTUS46 KPQR 041341 AAA
TAFTTD
TAF AMD
KTTD 041341Z 0414/0512 VRB03KT 6SM BR SCT010 OVC015
     FM041700 VRB03KT 4SM BR SCT015 OVC025
     FM041900 31005KT P6SM VCSH FEW030 SCT050=



000
FTUS46 KPQR 041341 AAA
TAFTTD
TAF AMD
KTTD 041341Z 0414/0512 VRB03KT 6SM BR SCT010 OVC015
     FM041700 VRB03KT 4SM BR SCT015 OVC025
     FM041900 31005KT P6SM VCSH FEW030 SCT050=



000
FTUS46 KPQR 041341 AAA
TAFTTD
TAF AMD
KTTD 041341Z 0414/0512 VRB03KT 6SM BR SCT010 OVC015
     FM041700 VRB03KT 4SM BR SCT015 OVC025
     FM041900 31005KT P6SM VCSH FEW030 SCT050=



000
FTUS46 KPQR 041341 AAA
TAFTTD
TAF AMD
KTTD 041341Z 0414/0512 VRB03KT 6SM BR SCT010 OVC015
     FM041700 VRB03KT 4SM BR SCT015 OVC025
     FM041900 31005KT P6SM VCSH FEW030 SCT050=



000
FTUS46 KPQR 041211 CCA
TAFTTD
TAF COR
KTTD 041211Z 0412/0512 VRB03KT 6SM BR OVC010
     FM041700 VRB03KT 4SM BR SCT008 OVC015
     FM041900 31005KT P6SM VCSH FEW030 SCT050=



000
FTUS46 KPQR 041211 CCA
TAFTTD
TAF COR
KTTD 041211Z 0412/0512 VRB03KT 6SM BR OVC010
     FM041700 VRB03KT 4SM BR SCT008 OVC015
     FM041900 31005KT P6SM VCSH FEW030 SCT050=



000
FTUS46 KPQR 041211 CCA
TAFTTD
TAF COR
KTTD 041211Z 0412/0512 VRB03KT 6SM BR OVC010
     FM041700 VRB03KT 4SM BR SCT008 OVC015
     FM041900 31005KT P6SM VCSH FEW030 SCT050=



000
FTUS46 KPQR 041211 CCA
TAFTTD
TAF COR
KTTD 041211Z 0412/0512 VRB03KT 6SM BR OVC010
     FM041700 VRB03KT 4SM BR SCT008 OVC015
     FM041900 31005KT P6SM VCSH FEW030 SCT050=



000
FTUS46 KPQR 041121
TAFONP
TAF
KONP 041121Z 0412/0512 09005KT P6SM SKC
     FM041800 34009KT P6SM SKC
     FM042200 34011G17KT P6SM VCSH FEW030 SCT050=



000
FTUS46 KPQR 041121
TAFPDX
TAF
KPDX 041121Z 0412/0512 33004KT 5SM BR OVC004
     FM041500 VRB03KT 6SM BR SCT004 OVC008
     FM041630 VRB03KT P6SM SCT008 BKN012
     FM041800 31005KT P6SM VCSH FEW025 SCT050=



000
FTUS46 KPQR 041121
TAFAST
TAF
KAST 041121Z 0412/0512 13003KT 6SM BR FEW002 SCT004
      TEMPO 0412/0415 6SM BR SCT005 BKN010
     FM041500 VRB04KT 5SM BR SCT004 BKN008
     FM041630 VRB05KT P6SM SCT008 BKN015
     FM041800 30009KT P6SM VCSH FEW030 SCT050=



000
FTUS46 KPQR 041121
TAFEUG
TAF
KEUG 041121Z 0412/0512 30003KT P6SM FEW008 BKN060
     FM041600 VRB03KT 6SM BR SCT012 BKN060
     FM041800 31006KT P6SM VCSH FEW030 SCT060=



000
FTUS46 KPQR 041121
TAFPDX
TAF
KPDX 041121Z 0412/0512 33004KT 5SM BR OVC004
     FM041500 VRB03KT 6SM BR SCT004 OVC008
     FM041630 VRB03KT P6SM SCT008 BKN012
     FM041800 31005KT P6SM VCSH FEW025 SCT050=



000
FTUS46 KPQR 041121
TAFTTD
TAF
KTTD 041121Z 0412/0512 VRB03KT 6SM BR OVC015
     FM041400 VRB03KT 4SM BR SCT008 OVC015
     FM042000 31005KT P6SM VCSH FEW030 SCT050=



000
FTUS46 KPQR 041121
TAFSLE
TAF
KSLE 041121Z 0412/0512 30003KT P6SM FEW008 BKN060
     FM041600 VRB03KT P6SM SCT030 BKN060
     FM041800 31006KT P6SM VCSH FEW030 SCT060=



000
FTUS46 KPQR 041121
TAFSLE
TAF
KSLE 041121Z 0412/0512 30003KT P6SM FEW008 BKN060
     FM041600 VRB03KT P6SM SCT030 BKN060
     FM041800 31006KT P6SM VCSH FEW030 SCT060=



000
FTUS46 KPQR 041121
TAFONP
TAF
KONP 041121Z 0412/0512 09005KT P6SM SKC
     FM041800 34009KT P6SM SKC
     FM042200 34011G17KT P6SM VCSH FEW030 SCT050=



000
FTUS46 KPQR 041121
TAFAST
TAF
KAST 041121Z 0412/0512 13003KT 6SM BR FEW002 SCT004
      TEMPO 0412/0415 6SM BR SCT005 BKN010
     FM041500 VRB04KT 5SM BR SCT004 BKN008
     FM041630 VRB05KT P6SM SCT008 BKN015
     FM041800 30009KT P6SM VCSH FEW030 SCT050=



000
FTUS46 KPQR 041121
TAFHIO
TAF
KHIO 041121Z 0412/0512 VRB03KT 6SM BR FEW002 SCT004
      TEMPO 0412/0414 1/2SM FG VV002
     FM041500 VRB03KT 4SM BR SCT002 BKN006
     FM041630 VRB03KT P6SM SCT008 BKN012
     FM041800 36005KT P6SM VCSH SCT050=



000
FTUS46 KPQR 041121
TAFPDX
TAF
KPDX 041121Z 0412/0512 33004KT 5SM BR OVC004
     FM041500 VRB03KT 6SM BR SCT004 OVC008
     FM041630 VRB03KT P6SM SCT008 BKN012
     FM041800 31005KT P6SM VCSH FEW025 SCT050=



000
FTUS46 KPQR 041121
TAFONP
TAF
KONP 041121Z 0412/0512 09005KT P6SM SKC
     FM041800 34009KT P6SM SKC
     FM042200 34011G17KT P6SM VCSH FEW030 SCT050=



000
FTUS46 KPQR 041121
TAFTTD
TAF
KTTD 041121Z 0412/0512 VRB03KT 6SM BR OVC015
     FM041400 VRB03KT 4SM BR SCT008 OVC015
     FM042000 31005KT P6SM VCSH FEW030 SCT050=



000
FTUS46 KPQR 041121
TAFEUG
TAF
KEUG 041121Z 0412/0512 30003KT P6SM FEW008 BKN060
     FM041600 VRB03KT 6SM BR SCT012 BKN060
     FM041800 31006KT P6SM VCSH FEW030 SCT060=



000
FTUS46 KPQR 041121
TAFSLE
TAF
KSLE 041121Z 0412/0512 30003KT P6SM FEW008 BKN060
     FM041600 VRB03KT P6SM SCT030 BKN060
     FM041800 31006KT P6SM VCSH FEW030 SCT060=



000
FTUS46 KPQR 041121
TAFEUG
TAF
KEUG 041121Z 0412/0512 30003KT P6SM FEW008 BKN060
     FM041600 VRB03KT 6SM BR SCT012 BKN060
     FM041800 31006KT P6SM VCSH FEW030 SCT060=



000
FTUS46 KPQR 041121
TAFPDX
TAF
KPDX 041121Z 0412/0512 33004KT 5SM BR OVC004
     FM041500 VRB03KT 6SM BR SCT004 OVC008
     FM041630 VRB03KT P6SM SCT008 BKN012
     FM041800 31005KT P6SM VCSH FEW025 SCT050=



000
FTUS46 KPQR 041121
TAFAST
TAF
KAST 041121Z 0412/0512 13003KT 6SM BR FEW002 SCT004
      TEMPO 0412/0415 6SM BR SCT005 BKN010
     FM041500 VRB04KT 5SM BR SCT004 BKN008
     FM041630 VRB05KT P6SM SCT008 BKN015
     FM041800 30009KT P6SM VCSH FEW030 SCT050=



000
FTUS46 KPQR 041121
TAFEUG
TAF
KEUG 041121Z 0412/0512 30003KT P6SM FEW008 BKN060
     FM041600 VRB03KT 6SM BR SCT012 BKN060
     FM041800 31006KT P6SM VCSH FEW030 SCT060=



000
FTUS46 KPQR 041121
TAFONP
TAF
KONP 041121Z 0412/0512 09005KT P6SM SKC
     FM041800 34009KT P6SM SKC
     FM042200 34011G17KT P6SM VCSH FEW030 SCT050=



000
FTUS46 KPQR 041121
TAFSLE
TAF
KSLE 041121Z 0412/0512 30003KT P6SM FEW008 BKN060
     FM041600 VRB03KT P6SM SCT030 BKN060
     FM041800 31006KT P6SM VCSH FEW030 SCT060=



000
FTUS46 KPQR 041121
TAFAST
TAF
KAST 041121Z 0412/0512 13003KT 6SM BR FEW002 SCT004
      TEMPO 0412/0415 6SM BR SCT005 BKN010
     FM041500 VRB04KT 5SM BR SCT004 BKN008
     FM041630 VRB05KT P6SM SCT008 BKN015
     FM041800 30009KT P6SM VCSH FEW030 SCT050=



000
FTUS46 KPQR 041121
TAFHIO
TAF
KHIO 041121Z 0412/0512 VRB03KT 6SM BR FEW002 SCT004
      TEMPO 0412/0414 1/2SM FG VV002
     FM041500 VRB03KT 4SM BR SCT002 BKN006
     FM041630 VRB03KT P6SM SCT008 BKN012
     FM041800 36005KT P6SM VCSH SCT050=



000
FTUS46 KPQR 041121
TAFTTD
TAF
KTTD 041121Z 0412/0512 VRB03KT 6SM BR OVC015
     FM041400 VRB03KT 4SM BR SCT008 OVC015
     FM042000 31005KT P6SM VCSH FEW030 SCT050=



000
FTUS46 KPQR 041121
TAFTTD
TAF
KTTD 041121Z 0412/0512 VRB03KT 6SM BR OVC015
     FM041400 VRB03KT 4SM BR SCT008 OVC015
     FM042000 31005KT P6SM VCSH FEW030 SCT050=



000
FTUS46 KPQR 041121
TAFHIO
TAF
KHIO 041121Z 0412/0512 VRB03KT 6SM BR FEW002 SCT004
      TEMPO 0412/0414 1/2SM FG VV002
     FM041500 VRB03KT 4SM BR SCT002 BKN006
     FM041630 VRB03KT P6SM SCT008 BKN012
     FM041800 36005KT P6SM VCSH SCT050=



000
FTUS46 KPQR 041121
TAFHIO
TAF
KHIO 041121Z 0412/0512 VRB03KT 6SM BR FEW002 SCT004
      TEMPO 0412/0414 1/2SM FG VV002
     FM041500 VRB03KT 4SM BR SCT002 BKN006
     FM041630 VRB03KT P6SM SCT008 BKN012
     FM041800 36005KT P6SM VCSH SCT050=



000
FTUS46 KPQR 041120
TAFSLE
TAF
KSLE 041120Z 0412/0512 30005KT P6SM FEW060
     FM041600 VRB03KT P6SM SCT030
     FM041800 36006KT P6SM VCSH SCT060=



000
FTUS46 KPQR 041120
TAFHIO
TAF
KHIO 041120Z 0412/0512 VRB03KT P6SM FEW025
     FM041800 36005KT P6SM VCSH SCT050=



000
FTUS46 KPQR 041120
TAFHIO
TAF
KHIO 041120Z 0412/0512 VRB03KT P6SM FEW025
     FM041800 36005KT P6SM VCSH SCT050=



000
FTUS46 KPQR 041120
TAFONP
TAF
KONP 041120Z 0412/0512 00000KT P6SM SKC
     FM041800 34009KT P6SM SKC
     FM042200 34011G17KT P6SM VCSH SCT050=



000
FTUS46 KPQR 041120
TAFAST
TAF
KAST 041120Z 0412/0512 VRB03KT P6SM SKC
     FM041800 34008KT P6SM VCSH SCT060=



000
FTUS46 KPQR 041120
TAFPDX
TAF
KPDX 041120Z 0412/0512 31005KT P6SM SCT060
     FM041400 VRB03KT P6SM BKN035
     FM041800 31006KT P6SM VCSH SCT070=



000
FTUS46 KPQR 041120
TAFAST
TAF
KAST 041120Z 0412/0512 VRB03KT P6SM SKC
     FM041800 34008KT P6SM VCSH SCT060=



000
FTUS46 KPQR 041120
TAFTTD
TAF
KTTD 041120Z 0412/0512 00000KT P6SM SCT050
     FM041400 00000KT P6SM BKN035
     FM041800 31006KT P6SM VCSH SCT070=



000
FTUS46 KPQR 041120
TAFONP
TAF
KONP 041120Z 0412/0512 00000KT P6SM SKC
     FM041800 34009KT P6SM SKC
     FM042200 34011G17KT P6SM VCSH SCT050=



000
FTUS46 KPQR 041120
TAFSLE
TAF
KSLE 041120Z 0412/0512 30005KT P6SM FEW060
     FM041600 VRB03KT P6SM SCT030
     FM041800 36006KT P6SM VCSH SCT060=



000
FTUS46 KPQR 041120
TAFEUG
TAF
KEUG 041120Z 0412/0512 VRB03KT P6SM SCT002
     FM041800 36009KT P6SM VCSH SCT060=



000
FTUS46 KPQR 041120
TAFSLE
TAF
KSLE 041120Z 0412/0512 30005KT P6SM FEW060
     FM041600 VRB03KT P6SM SCT030
     FM041800 36006KT P6SM VCSH SCT060=



000
FTUS46 KPQR 041120
TAFHIO
TAF
KHIO 041120Z 0412/0512 VRB03KT P6SM FEW025
     FM041800 36005KT P6SM VCSH SCT050=



000
FTUS46 KPQR 041120
TAFHIO
TAF
KHIO 041120Z 0412/0512 VRB03KT P6SM FEW025
     FM041800 36005KT P6SM VCSH SCT050=



000
FTUS46 KPQR 041120
TAFONP
TAF
KONP 041120Z 0412/0512 00000KT P6SM SKC
     FM041800 34009KT P6SM SKC
     FM042200 34011G17KT P6SM VCSH SCT050=



000
FTUS46 KPQR 041120
TAFTTD
TAF
KTTD 041120Z 0412/0512 00000KT P6SM SCT050
     FM041400 00000KT P6SM BKN035
     FM041800 31006KT P6SM VCSH SCT070=



000
FTUS46 KPQR 041120
TAFAST
TAF
KAST 041120Z 0412/0512 VRB03KT P6SM SKC
     FM041800 34008KT P6SM VCSH SCT060=



000
FTUS46 KPQR 041120
TAFAST
TAF
KAST 041120Z 0412/0512 VRB03KT P6SM SKC
     FM041800 34008KT P6SM VCSH SCT060=



000
FTUS46 KPQR 041120
TAFTTD
TAF
KTTD 041120Z 0412/0512 00000KT P6SM SCT050
     FM041400 00000KT P6SM BKN035
     FM041800 31006KT P6SM VCSH SCT070=



000
FTUS46 KPQR 041120
TAFPDX
TAF
KPDX 041120Z 0412/0512 31005KT P6SM SCT060
     FM041400 VRB03KT P6SM BKN035
     FM041800 31006KT P6SM VCSH SCT070=



000
FTUS46 KPQR 041120
TAFPDX
TAF
KPDX 041120Z 0412/0512 31005KT P6SM SCT060
     FM041400 VRB03KT P6SM BKN035
     FM041800 31006KT P6SM VCSH SCT070=



000
FTUS46 KPQR 041120
TAFTTD
TAF
KTTD 041120Z 0412/0512 00000KT P6SM SCT050
     FM041400 00000KT P6SM BKN035
     FM041800 31006KT P6SM VCSH SCT070=



000
FTUS46 KPQR 041120
TAFEUG
TAF
KEUG 041120Z 0412/0512 VRB03KT P6SM SCT002
     FM041800 36009KT P6SM VCSH SCT060=



000
FTUS46 KPQR 041120
TAFPDX
TAF
KPDX 041120Z 0412/0512 31005KT P6SM SCT060
     FM041400 VRB03KT P6SM BKN035
     FM041800 31006KT P6SM VCSH SCT070=



000
FTUS46 KPQR 041120
TAFEUG
TAF
KEUG 041120Z 0412/0512 VRB03KT P6SM SCT002
     FM041800 36009KT P6SM VCSH SCT060=



000
FTUS46 KPQR 041120
TAFONP
TAF
KONP 041120Z 0412/0512 00000KT P6SM SKC
     FM041800 34009KT P6SM SKC
     FM042200 34011G17KT P6SM VCSH SCT050=



000
FTUS46 KPQR 041120
TAFSLE
TAF
KSLE 041120Z 0412/0512 30005KT P6SM FEW060
     FM041600 VRB03KT P6SM SCT030
     FM041800 36006KT P6SM VCSH SCT060=



000
FTUS46 KPQR 041120
TAFEUG
TAF
KEUG 041120Z 0412/0512 VRB03KT P6SM SCT002
     FM041800 36009KT P6SM VCSH SCT060=



000
FTUS46 KPQR 041023 AAC
TAFTTD
TAF AMD
KTTD 041023Z 0410/0506 VRB03KT 6SM BR SCT008 BKN012
     FM041400 VRB03KT 4SM BR SCT004 BKN008
     FM041630 VRB03KT P6SM SCT008 BKN015
     FM041800 31005KT P6SM VCSH SCT050=



000
FTUS46 KPQR 041023 AAC
TAFTTD
TAF AMD
KTTD 041023Z 0410/0506 VRB03KT 6SM BR SCT008 BKN012
     FM041400 VRB03KT 4SM BR SCT004 BKN008
     FM041630 VRB03KT P6SM SCT008 BKN015
     FM041800 31005KT P6SM VCSH SCT050=



000
FTUS46 KPQR 040850 AAE
TAFPDX
TAF AMD
KPDX 040850Z 0409/0506 30005KT P6SM FEW060
     FM041000 VRB03KT 6SM BR FEW003 SCT006
      TEMPO 0410/0414 1SM BR SCT003 BKN006
     FM041400 VRB03KT 4SM BR SCT003 BKN006
     FM041630 VRB03KT P6SM SCT006 BKN012
     FM041800 31005KT P6SM VCSH FEW025 SCT050=



000
FTUS46 KPQR 040752 AAB
TAFTTD
TAF AMD
KTTD 040752Z 0408/0506 VRB03KT P6SM SKC
     FM041000 VRB03KT 6SM BR FEW004 SCT008
      TEMPO 0410/0414 1SM BR SCT004 BKN008
     FM041400 VRB03KT 4SM BR SCT004 BKN008
     FM041630 VRB03KT P6SM SCT008 BKN012
     FM041800 31005KT P6SM VCSH SCT050=



000
FTUS46 KPQR 040752 AAC
TAFHIO
TAF AMD
KHIO 040752Z 0408/0506 30005KT P6SM FEW060
     FM041000 VRB03KT 6SM BR FEW002 SCT004
      TEMPO 0410/0414 1/2SM FG VV004
     FM041400 VRB03KT 4SM BR SCT004 BKN008
     FM041630 VRB03KT P6SM SCT008 BKN012
     FM041800 36005KT P6SM VCSH SCT050=



000
FTUS46 KPQR 040752 AAB
TAFTTD
TAF AMD
KTTD 040752Z 0408/0506 VRB03KT P6SM SKC
     FM041000 VRB03KT 6SM BR FEW004 SCT008
      TEMPO 0410/0414 1SM BR SCT004 BKN008
     FM041400 VRB03KT 4SM BR SCT004 BKN008
     FM041630 VRB03KT P6SM SCT008 BKN012
     FM041800 31005KT P6SM VCSH SCT050=



000
FTUS46 KPQR 040752 AAB
TAFTTD
TAF AMD
KTTD 040752Z 0408/0506 VRB03KT P6SM SKC
     FM041000 VRB03KT 6SM BR FEW004 SCT008
      TEMPO 0410/0414 1SM BR SCT004 BKN008
     FM041400 VRB03KT 4SM BR SCT004 BKN008
     FM041630 VRB03KT P6SM SCT008 BKN012
     FM041800 31005KT P6SM VCSH SCT050=



000
FTUS46 KPQR 040752 AAC
TAFHIO
TAF AMD
KHIO 040752Z 0408/0506 30005KT P6SM FEW060
     FM041000 VRB03KT 6SM BR FEW002 SCT004
      TEMPO 0410/0414 1/2SM FG VV004
     FM041400 VRB03KT 4SM BR SCT004 BKN008
     FM041630 VRB03KT P6SM SCT008 BKN012
     FM041800 36005KT P6SM VCSH SCT050=



000
FTUS46 KPQR 040752 AAC
TAFHIO
TAF AMD
KHIO 040752Z 0408/0506 30005KT P6SM FEW060
     FM041000 VRB03KT 6SM BR FEW002 SCT004
      TEMPO 0410/0414 1/2SM FG VV004
     FM041400 VRB03KT 4SM BR SCT004 BKN008
     FM041630 VRB03KT P6SM SCT008 BKN012
     FM041800 36005KT P6SM VCSH SCT050=



000
FTUS46 KPQR 040752 AAC
TAFHIO
TAF AMD
KHIO 040752Z 0408/0506 30005KT P6SM FEW060
     FM041000 VRB03KT 6SM BR FEW002 SCT004
      TEMPO 0410/0414 1/2SM FG VV004
     FM041400 VRB03KT 4SM BR SCT004 BKN008
     FM041630 VRB03KT P6SM SCT008 BKN012
     FM041800 36005KT P6SM VCSH SCT050=



000
FTUS46 KPQR 040751 AAD
TAFPDX
TAF AMD
KPDX 040751Z 0408/0506 30005KT P6SM FEW060
     FM041000 VRB03KT 6SM BR FEW004 SCT008
      TEMPO 0410/0414 1SM BR SCT004 BKN008
     FM041400 VRB03KT 4SM BR SCT004 BKN008
     FM041630 VRB03KT P6SM SCT008 BKN012
     FM041800 31005KT P6SM VCSH SCT050=



000
FTUS46 KPQR 040750 AAC
TAFPDX
TAF AMD
KPDX 040750Z 0408/0506 30005KT P6SM FEW060
     FM041000 VRB03KT 6SM BR FEW004 SCT008
      TEMPO 0410/0414 1SM BR SCT004 BKN008
     FM041400 VRB03KT 4SM BR SCT004 BKN008
     FM041630 VRB03KT P6SM SCT008 BKN012
     FM041800 36005KT P6SM VCSH SCT050=



000
FTUS46 KPQR 040750 AAC
TAFPDX
TAF AMD
KPDX 040750Z 0408/0506 30005KT P6SM FEW060
     FM041000 VRB03KT 6SM BR FEW004 SCT008
      TEMPO 0410/0414 1SM BR SCT004 BKN008
     FM041400 VRB03KT 4SM BR SCT004 BKN008
     FM041630 VRB03KT P6SM SCT008 BKN012
     FM041800 36005KT P6SM VCSH SCT050=



000
FTUS46 KPQR 040706 AAD
TAFAST
TAF AMD
KAST 040706Z 0407/0506 13003KT P6SM SKC
     FM041100 13003KT 6SM BR FEW002 SCT004
      TEMPO 0411/0415 1SM BR SCT002 BKN004
     FM041500 VRB04KT 4SM BR SCT004 BKN008
     FM041630 VRB05KT P6SM SCT008 BKN015
     FM041800 30009KT P6SM VCSH FEW030 SCT050=



000
FTUS46 KPQR 040706 AAD
TAFAST
TAF AMD
KAST 040706Z 0407/0506 13003KT P6SM SKC
     FM041100 13003KT 6SM BR FEW002 SCT004
      TEMPO 0411/0415 1SM BR SCT002 BKN004
     FM041500 VRB04KT 4SM BR SCT004 BKN008
     FM041630 VRB05KT P6SM SCT008 BKN015
     FM041800 30009KT P6SM VCSH FEW030 SCT050=



000
FTUS46 KPQR 040706 AAD
TAFAST
TAF AMD
KAST 040706Z 0407/0506 13003KT P6SM SKC
     FM041100 13003KT 6SM BR FEW002 SCT004
      TEMPO 0411/0415 1SM BR SCT002 BKN004
     FM041500 VRB04KT 4SM BR SCT004 BKN008
     FM041630 VRB05KT P6SM SCT008 BKN015
     FM041800 30009KT P6SM VCSH FEW030 SCT050=



000
FTUS46 KPQR 040706 AAD
TAFAST
TAF AMD
KAST 040706Z 0407/0506 13003KT P6SM SKC
     FM041100 13003KT 6SM BR FEW002 SCT004
      TEMPO 0411/0415 1SM BR SCT002 BKN004
     FM041500 VRB04KT 4SM BR SCT004 BKN008
     FM041630 VRB05KT P6SM SCT008 BKN015
     FM041800 30009KT P6SM VCSH FEW030 SCT050=



000
FTUS46 KPQR 040705 AAC
TAFAST
TAF AMD
KAST 040705Z 0407/0506 30005KT P6SM SKC
     FM041100 VRB03KT 6SM BR FEW002 SCT004
      TEMPO 0411/0415 1SM BR SCT002 BKN004
     FM041500 VRB03KT 4SM BR SCT004 BKN008
     FM041630 VRB03KT P6SM SCT008 BKN015
     FM041800 30009KT P6SM VCSH FEW030 SCT050=



000
FTUS46 KPQR 040705 AAC
TAFAST
TAF AMD
KAST 040705Z 0407/0506 30005KT P6SM SKC
     FM041100 VRB03KT 6SM BR FEW002 SCT004
      TEMPO 0411/0415 1SM BR SCT002 BKN004
     FM041500 VRB03KT 4SM BR SCT004 BKN008
     FM041630 VRB03KT P6SM SCT008 BKN015
     FM041800 30009KT P6SM VCSH FEW030 SCT050=



000
FTUS46 KPQR 040704 AAB
TAFAST
TAF AMD
KAST 040704Z 0407/0506 30005KT P6SM SKC
     FM041100 VRB03KT 6SM BR FEW002 SCT004
      TEMPO 0411/0415 1SM BR SCT002 BKN004
     FM041500 VRB03KT 4SM BR SCT004 BKN008
     FM041630 VRB03KT P6SM SCT008 BKN015
     FM041800 36005KT P6SM VCSH SCT050=



000
FTUS46 KPQR 040704 AAB
TAFAST
TAF AMD
KAST 040704Z 0407/0506 30005KT P6SM SKC
     FM041100 VRB03KT 6SM BR FEW002 SCT004
      TEMPO 0411/0415 1SM BR SCT002 BKN004
     FM041500 VRB03KT 4SM BR SCT004 BKN008
     FM041630 VRB03KT P6SM SCT008 BKN015
     FM041800 36005KT P6SM VCSH SCT050=



000
FTUS46 KPQR 040704 AAB
TAFAST
TAF AMD
KAST 040704Z 0407/0506 30005KT P6SM SKC
     FM041100 VRB03KT 6SM BR FEW002 SCT004
      TEMPO 0411/0415 1SM BR SCT002 BKN004
     FM041500 VRB03KT 4SM BR SCT004 BKN008
     FM041630 VRB03KT P6SM SCT008 BKN015
     FM041800 36005KT P6SM VCSH SCT050=



000
FTUS46 KPQR 040704 AAB
TAFAST
TAF AMD
KAST 040704Z 0407/0506 30005KT P6SM SKC
     FM041100 VRB03KT 6SM BR FEW002 SCT004
      TEMPO 0411/0415 1SM BR SCT002 BKN004
     FM041500 VRB03KT 4SM BR SCT004 BKN008
     FM041630 VRB03KT P6SM SCT008 BKN015
     FM041800 36005KT P6SM VCSH SCT050=



000
FTUS46 KPQR 040651 AAB
TAFHIO
TAF AMD
KHIO 040651Z 0407/0506 30005KT P6SM FEW060
     FM041000 VRB03KT 6SM BR FEW002 SCT004
      TEMPO 0411/0415 1SM BR SCT002 BKN004
     FM041500 VRB03KT 4SM BR SCT004 BKN008
     FM041630 VRB03KT P6SM SCT008 BKN012
     FM041800 36005KT P6SM VCSH SCT050=



000
FTUS46 KPQR 040651 AAB
TAFHIO
TAF AMD
KHIO 040651Z 0407/0506 30005KT P6SM FEW060
     FM041000 VRB03KT 6SM BR FEW002 SCT004
      TEMPO 0411/0415 1SM BR SCT002 BKN004
     FM041500 VRB03KT 4SM BR SCT004 BKN008
     FM041630 VRB03KT P6SM SCT008 BKN012
     FM041800 36005KT P6SM VCSH SCT050=



000
FTUS46 KPQR 040614 AAA
TAFSLE
TAF AMD
KSLE 040614Z 0406/0506 30005KT P6SM FEW060
     FM041600 VRB03KT P6SM SCT030
     FM041800 36006KT P6SM VCSH SCT060=



000
FTUS46 KPQR 040614 AAA
TAFSLE
TAF AMD
KSLE 040614Z 0406/0506 30005KT P6SM FEW060
     FM041600 VRB03KT P6SM SCT030
     FM041800 36006KT P6SM VCSH SCT060=



000
FTUS46 KPQR 040614 AAA
TAFTTD
TAF AMD
KTTD 040614Z 0406/0506 00000KT P6SM SCT050
     FM041400 00000KT P6SM BKN035
     FM041800 31006KT P6SM VCSH SCT070=



000
FTUS46 KPQR 040614 AAA
TAFHIO
TAF AMD
KHIO 040614Z 0406/0506 30005KT P6SM FEW060
     FM041000 VRB03KT P6SM FEW025
     FM041800 36005KT P6SM VCSH SCT050=



000
FTUS46 KPQR 040614 AAA
TAFTTD
TAF AMD
KTTD 040614Z 0406/0506 00000KT P6SM SCT050
     FM041400 00000KT P6SM BKN035
     FM041800 31006KT P6SM VCSH SCT070=



000
FTUS46 KPQR 040614 AAA
TAFTTD
TAF AMD
KTTD 040614Z 0406/0506 00000KT P6SM SCT050
     FM041400 00000KT P6SM BKN035
     FM041800 31006KT P6SM VCSH SCT070=



000
FTUS46 KPQR 040614 AAA
TAFTTD
TAF AMD
KTTD 040614Z 0406/0506 00000KT P6SM SCT050
     FM041400 00000KT P6SM BKN035
     FM041800 31006KT P6SM VCSH SCT070=



000
FTUS46 KPQR 040614 AAA
TAFHIO
TAF AMD
KHIO 040614Z 0406/0506 30005KT P6SM FEW060
     FM041000 VRB03KT P6SM FEW025
     FM041800 36005KT P6SM VCSH SCT050=



000
FTUS46 KPQR 040614 AAA
TAFHIO
TAF AMD
KHIO 040614Z 0406/0506 30005KT P6SM FEW060
     FM041000 VRB03KT P6SM FEW025
     FM041800 36005KT P6SM VCSH SCT050=



000
FTUS46 KPQR 040614 AAA
TAFONP
TAF AMD
KONP 040614Z 0406/0506 00000KT P6SM SKC
     FM041800 34009KT P6SM SKC
     FM042200 34011G17KT P6SM VCSH SCT050=



000
FTUS46 KPQR 040614 AAA
TAFONP
TAF AMD
KONP 040614Z 0406/0506 00000KT P6SM SKC
     FM041800 34009KT P6SM SKC
     FM042200 34011G17KT P6SM VCSH SCT050=



000
FTUS46 KPQR 040614 AAA
TAFONP
TAF AMD
KONP 040614Z 0406/0506 00000KT P6SM SKC
     FM041800 34009KT P6SM SKC
     FM042200 34011G17KT P6SM VCSH SCT050=



000
FTUS46 KPQR 040614 AAA
TAFSLE
TAF AMD
KSLE 040614Z 0406/0506 30005KT P6SM FEW060
     FM041600 VRB03KT P6SM SCT030
     FM041800 36006KT P6SM VCSH SCT060=



000
FTUS46 KPQR 040614 AAB
TAFPDX
TAF AMD
KPDX 040614Z 0406/0506 31005KT P6SM SCT060
     FM041400 VRB03KT P6SM BKN035
     FM041800 31006KT P6SM VCSH SCT070=



000
FTUS46 KPQR 040614 AAB
TAFPDX
TAF AMD
KPDX 040614Z 0406/0506 31005KT P6SM SCT060
     FM041400 VRB03KT P6SM BKN035
     FM041800 31006KT P6SM VCSH SCT070=



000
FTUS46 KPQR 040614 AAA
TAFAST
TAF AMD
KAST 040614Z 0406/0506 VRB03KT P6SM SKC
     FM041800 34008KT P6SM VCSH SCT060=



000
FTUS46 KPQR 040614 AAA
TAFAST
TAF AMD
KAST 040614Z 0406/0506 VRB03KT P6SM SKC
     FM041800 34008KT P6SM VCSH SCT060=



000
FTUS46 KPQR 040614 AAA
TAFEUG
TAF AMD
KEUG 040614Z 0406/0506 30005KT P6SM FEW060
     FM041200 VRB03KT P6SM SCT002
     FM041800 36009KT P6SM VCSH SCT006=



000
FTUS46 KPQR 040614 AAB
TAFPDX
TAF AMD
KPDX 040614Z 0406/0506 31005KT P6SM SCT060
     FM041400 VRB03KT P6SM BKN035
     FM041800 31006KT P6SM VCSH SCT070=



000
FTUS46 KPQR 040614 AAB
TAFPDX
TAF AMD
KPDX 040614Z 0406/0506 31005KT P6SM SCT060
     FM041400 VRB03KT P6SM BKN035
     FM041800 31006KT P6SM VCSH SCT070=



000
FTUS46 KPQR 040614 AAA
TAFAST
TAF AMD
KAST 040614Z 0406/0506 VRB03KT P6SM SKC
     FM041800 34008KT P6SM VCSH SCT060=



000
FTUS46 KPQR 040614 AAA
TAFEUG
TAF AMD
KEUG 040614Z 0406/0506 30005KT P6SM FEW060
     FM041200 VRB03KT P6SM SCT002
     FM041800 36009KT P6SM VCSH SCT006=



000
FTUS46 KPQR 040614 AAA
TAFAST
TAF AMD
KAST 040614Z 0406/0506 VRB03KT P6SM SKC
     FM041800 34008KT P6SM VCSH SCT060=



000
FTUS46 KPQR 040309 AAA
TAFPDX
TAF AMD
KPDX 040309Z 0403/0424 31005KT P6SM SCT060
     FM041400 VRB03KT P6SM BKN035
     FM041800 31006KT P6SM VCSH SCT070=



000
FTUS46 KPQR 040309 AAA
TAFPDX
TAF AMD
KPDX 040309Z 0403/0424 31005KT P6SM SCT060
     FM041400 VRB03KT P6SM BKN035
     FM041800 31006KT P6SM VCSH SCT070=



000
FTUS46 KPQR 040309 AAA
TAFPDX
TAF AMD
KPDX 040309Z 0403/0424 31005KT P6SM SCT060
     FM041400 VRB03KT P6SM BKN035
     FM041800 31006KT P6SM VCSH SCT070=



000
FTUS46 KPQR 032337
TAFONP
TAF
KONP 032337Z 0400/0424 34006KT P6SM VCSH SCT030
     FM040500 00000KT P6SM SKC
     FM041800 34009KT P6SM SKC
     FM042200 34011G17KT P6SM VCSH SCT050=



000
FTUS46 KPQR 032337
TAFAST
TAF
KAST 032337Z 0400/0424 26009KT P6SM VCSH SCT030
     FM040500 VRB03KT P6SM SKC
     FM041800 34008KT P6SM VCSH SCT060=



000
FTUS46 KPQR 032337
TAFEUG
TAF
KEUG 032337Z 0400/0424 31007KT P6SM VCSH BKN070
     FM040300 30005KT P6SM FEW060
     FM041200 VRB03KT P6SM SCT002
     FM041800 36009KT P6SM VCSH SCT006=



000
FTUS46 KPQR 032337
TAFTTD
TAF
KTTD 032337Z 0400/0424 28003KT P6SM -SHRA BKN060
     FM040300 00000KT P6SM SCT050
     FM041400 00000KT P6SM BKN035
     FM041800 31006KT P6SM VCSH SCT070=



000
FTUS46 KPQR 032337
TAFSLE
TAF
KSLE 032337Z 0400/0424 30007KT P6SM VCSH BKN070
     FM040300 30005KT P6SM FEW060
     FM041600 VRB03KT P6SM SCT030
     FM041800 36006KT P6SM VCSH SCT060=



000
FTUS46 KPQR 032337
TAFTTD
TAF
KTTD 032337Z 0400/0424 28003KT P6SM -SHRA BKN060
     FM040300 00000KT P6SM SCT050
     FM041400 00000KT P6SM BKN035
     FM041800 31006KT P6SM VCSH SCT070=



000
FTUS46 KPQR 032337
TAFSLE
TAF
KSLE 032337Z 0400/0424 30007KT P6SM VCSH BKN070
     FM040300 30005KT P6SM FEW060
     FM041600 VRB03KT P6SM SCT030
     FM041800 36006KT P6SM VCSH SCT060=



000
FTUS46 KPQR 032337
TAFPDX
TAF
KPDX 032337Z 0400/0424 30007KT P6SM -SHRA BKN050
     FM040300 31005KT P6SM FEW060
     FM041400 VRB03KT P6SM BKN035
     FM041800 31006KT P6SM VCSH SCT070=



000
FTUS46 KPQR 032337
TAFAST
TAF
KAST 032337Z 0400/0424 26009KT P6SM VCSH SCT030
     FM040500 VRB03KT P6SM SKC
     FM041800 34008KT P6SM VCSH SCT060=



000
FTUS46 KPQR 032337
TAFEUG
TAF
KEUG 032337Z 0400/0424 31007KT P6SM VCSH BKN070
     FM040300 30005KT P6SM FEW060
     FM041200 VRB03KT P6SM SCT002
     FM041800 36009KT P6SM VCSH SCT006=



000
FTUS46 KPQR 032337
TAFHIO
TAF
KHIO 032337Z 0400/0424 30007KT P6SM -SHRA BKN040
     FM040300 30005KT P6SM FEW060
     FM041000 VRB03KT P6SM FEW025
     FM041800 36005KT P6SM VCSH SCT050=



000
FTUS46 KPQR 032337
TAFSLE
TAF
KSLE 032337Z 0400/0424 30007KT P6SM VCSH BKN070
     FM040300 30005KT P6SM FEW060
     FM041600 VRB03KT P6SM SCT030
     FM041800 36006KT P6SM VCSH SCT060=



000
FTUS46 KPQR 032337
TAFSLE
TAF
KSLE 032337Z 0400/0424 30007KT P6SM VCSH BKN070
     FM040300 30005KT P6SM FEW060
     FM041600 VRB03KT P6SM SCT030
     FM041800 36006KT P6SM VCSH SCT060=



000
FTUS46 KPQR 032337
TAFAST
TAF
KAST 032337Z 0400/0424 26009KT P6SM VCSH SCT030
     FM040500 VRB03KT P6SM SKC
     FM041800 34008KT P6SM VCSH SCT060=



000
FTUS46 KPQR 032337
TAFTTD
TAF
KTTD 032337Z 0400/0424 28003KT P6SM -SHRA BKN060
     FM040300 00000KT P6SM SCT050
     FM041400 00000KT P6SM BKN035
     FM041800 31006KT P6SM VCSH SCT070=



000
FTUS46 KPQR 032337
TAFPDX
TAF
KPDX 032337Z 0400/0424 30007KT P6SM -SHRA BKN050
     FM040300 31005KT P6SM FEW060
     FM041400 VRB03KT P6SM BKN035
     FM041800 31006KT P6SM VCSH SCT070=



000
FTUS46 KPQR 032337
TAFAST
TAF
KAST 032337Z 0400/0424 26009KT P6SM VCSH SCT030
     FM040500 VRB03KT P6SM SKC
     FM041800 34008KT P6SM VCSH SCT060=



000
FTUS46 KPQR 032337
TAFPDX
TAF
KPDX 032337Z 0400/0424 30007KT P6SM -SHRA BKN050
     FM040300 31005KT P6SM FEW060
     FM041400 VRB03KT P6SM BKN035
     FM041800 31006KT P6SM VCSH SCT070=



000
FTUS46 KPQR 032337
TAFONP
TAF
KONP 032337Z 0400/0424 34006KT P6SM VCSH SCT030
     FM040500 00000KT P6SM SKC
     FM041800 34009KT P6SM SKC
     FM042200 34011G17KT P6SM VCSH SCT050=



000
FTUS46 KPQR 032337
TAFHIO
TAF
KHIO 032337Z 0400/0424 30007KT P6SM -SHRA BKN040
     FM040300 30005KT P6SM FEW060
     FM041000 VRB03KT P6SM FEW025
     FM041800 36005KT P6SM VCSH SCT050=



000
FTUS46 KPQR 032337
TAFTTD
TAF
KTTD 032337Z 0400/0424 28003KT P6SM -SHRA BKN060
     FM040300 00000KT P6SM SCT050
     FM041400 00000KT P6SM BKN035
     FM041800 31006KT P6SM VCSH SCT070=



000
FTUS46 KPQR 032337
TAFEUG
TAF
KEUG 032337Z 0400/0424 31007KT P6SM VCSH BKN070
     FM040300 30005KT P6SM FEW060
     FM041200 VRB03KT P6SM SCT002
     FM041800 36009KT P6SM VCSH SCT006=



000
FTUS46 KPQR 032337
TAFHIO
TAF
KHIO 032337Z 0400/0424 30007KT P6SM -SHRA BKN040
     FM040300 30005KT P6SM FEW060
     FM041000 VRB03KT P6SM FEW025
     FM041800 36005KT P6SM VCSH SCT050=



000
FTUS46 KPQR 032337
TAFONP
TAF
KONP 032337Z 0400/0424 34006KT P6SM VCSH SCT030
     FM040500 00000KT P6SM SKC
     FM041800 34009KT P6SM SKC
     FM042200 34011G17KT P6SM VCSH SCT050=



000
FTUS46 KPQR 032337
TAFEUG
TAF
KEUG 032337Z 0400/0424 31007KT P6SM VCSH BKN070
     FM040300 30005KT P6SM FEW060
     FM041200 VRB03KT P6SM SCT002
     FM041800 36009KT P6SM VCSH SCT006=



000
FTUS46 KPQR 032108 AAA
TAFPDX
TAF AMD
KPDX 032108Z 0321/0418 30007KT P6SM VCSH SCT040
     FM040300 31005KT P6SM SCT050
     FM041400 VRB03KT P6SM SCT025=



000
FTUS46 KPQR 032108 AAA
TAFPDX
TAF AMD
KPDX 032108Z 0321/0418 30007KT P6SM VCSH SCT040
     FM040300 31005KT P6SM SCT050
     FM041400 VRB03KT P6SM SCT025=



000
FTUS46 KPQR 032012 AAA
TAFONP
TAF AMD
KONP 032012Z 0320/0418 34006KT P6SM VCSH SCT020
     FM040200 36003KT P6SM FEW025
     FM040500 VRB03KT P6SM SCT020 BKN050=



000
FTUS46 KPQR 032012 AAA
TAFONP
TAF AMD
KONP 032012Z 0320/0418 34006KT P6SM VCSH SCT020
     FM040200 36003KT P6SM FEW025
     FM040500 VRB03KT P6SM SCT020 BKN050=



000
FTUS46 KPQR 032012 AAA
TAFAST
TAF AMD
KAST 032012Z 0320/0418 26009KT P6SM VCSH SCT020
     FM040100 30005KT P6SM FEW030
     FM040500 VRB03KT P6SM SCT025 BKN050=



000
FTUS46 KPQR 032012 AAA
TAFAST
TAF AMD
KAST 032012Z 0320/0418 26009KT P6SM VCSH SCT020
     FM040100 30005KT P6SM FEW030
     FM040500 VRB03KT P6SM SCT025 BKN050=



000
FTUS46 KPQR 031720
TAFSLE
TAF
KSLE 031720Z 0318/0418 31006KT P6SM SCT035
     FM032000 30007KT P6SM VCSH SCT035
     FM040300 30005KT P6SM SCT050
     FM041300 VRB03KT P6SM SCT030=



000
FTUS46 KPQR 031720
TAFAST
TAF
KAST 031720Z 0318/0418 26005KT P6SM VCSH SCT020
      TEMPO 0318/0321 5SM -SHRA SCT010 BKN015
     FM040100 30005KT P6SM FEW030
     FM040500 VRB03KT P6SM SCT025 BKN050=



000
FTUS46 KPQR 031720
TAFPDX
TAF
KPDX 031720Z 0318/0418 30004KT P6SM FEW020 SCT060
     FM032000 30007KT P6SM VCSH SCT040
     FM040300 31005KT P6SM SCT050
     FM041400 VRB03KT P6SM SCT025=



000
FTUS46 KPQR 031720
TAFONP
TAF
KONP 031720Z 0318/0418 34006KT P6SM VCSH SCT020
      TEMPO 0318/0321 5SM -SHRA SCT008 BKN015
     FM040200 36003KT P6SM FEW025
     FM040500 VRB03KT P6SM SCT020 BKN050=



000
FTUS46 KPQR 031720
TAFTTD
TAF
KTTD 031720Z 0318/0418 27004KT P6SM SCT040
     FM032000 28003KT P6SM VCSH SCT040
     FM040300 VRB03KT P6SM SCT050
     FM041400 00000KT P6SM SCT022=



000
FTUS46 KPQR 031720
TAFAST
TAF
KAST 031720Z 0318/0418 26005KT P6SM VCSH SCT020
      TEMPO 0318/0321 5SM -SHRA SCT010 BKN015
     FM040100 30005KT P6SM FEW030
     FM040500 VRB03KT P6SM SCT025 BKN050=



000
FTUS46 KPQR 031720
TAFHIO
TAF
KHIO 031720Z 0318/0418 31005KT P6SM SCT060
     FM032000 30007KT P6SM VCSH SCT040
     FM040300 30005KT P6SM SCT050
     FM041000 VRB03KT P6SM SCT025=



000
FTUS46 KPQR 031720
TAFHIO
TAF
KHIO 031720Z 0318/0418 31005KT P6SM SCT060
     FM032000 30007KT P6SM VCSH SCT040
     FM040300 30005KT P6SM SCT050
     FM041000 VRB03KT P6SM SCT025=



000
FTUS46 KPQR 031720
TAFEUG
TAF
KEUG 031720Z 0318/0418 31007KT P6SM SCT040
     FM041200 VRB03KT P6SM SCT025=



000
FTUS46 KPQR 031720
TAFPDX
TAF
KPDX 031720Z 0318/0418 30004KT P6SM FEW020 SCT060
     FM032000 30007KT P6SM VCSH SCT040
     FM040300 31005KT P6SM SCT050
     FM041400 VRB03KT P6SM SCT025=



000
FTUS46 KPQR 031720
TAFONP
TAF
KONP 031720Z 0318/0418 34006KT P6SM VCSH SCT020
      TEMPO 0318/0321 5SM -SHRA SCT008 BKN015
     FM040200 36003KT P6SM FEW025
     FM040500 VRB03KT P6SM SCT020 BKN050=



000
FTUS46 KPQR 031720
TAFSLE
TAF
KSLE 031720Z 0318/0418 31006KT P6SM SCT035
     FM032000 30007KT P6SM VCSH SCT035
     FM040300 30005KT P6SM SCT050
     FM041300 VRB03KT P6SM SCT030=



000
FTUS46 KPQR 031720
TAFTTD
TAF
KTTD 031720Z 0318/0418 27004KT P6SM SCT040
     FM032000 28003KT P6SM VCSH SCT040
     FM040300 VRB03KT P6SM SCT050
     FM041400 00000KT P6SM SCT022=



000
FTUS46 KPQR 031720
TAFEUG
TAF
KEUG 031720Z 0318/0418 31007KT P6SM SCT040
     FM041200 VRB03KT P6SM SCT025=



000
FTUS46 KPQR 031526 AAC
TAFEUG
TAF AMD
KEUG 031526Z 0315/0412 16005KT 6SM BR FEW002 BKN035
     FM031700 VRB03KT P6SM SCT035
     FM031800 31007KT P6SM VCSH SCT040=



000
FTUS46 KPQR 031526 AAC
TAFEUG
TAF AMD
KEUG 031526Z 0315/0412 16005KT 6SM BR FEW002 BKN035
     FM031700 VRB03KT P6SM SCT035
     FM031800 31007KT P6SM VCSH SCT040=



000
FTUS46 KPQR 031526 AAC
TAFEUG
TAF AMD
KEUG 031526Z 0315/0412 16005KT 6SM BR FEW002 BKN035
     FM031700 VRB03KT P6SM SCT035
     FM031800 31007KT P6SM VCSH SCT040=



000
FTUS46 KPQR 031503 AAA
TAFPDX
TAF AMD
KPDX 031503Z 0315/0412 VRB03KT P6SM FEW010 SCT025 BKN040
     FM031800 27004KT P6SM VCSH SCT040=



000
FTUS46 KPQR 031356 AAB
TAFEUG
TAF AMD
KEUG 031356Z 0314/0412 16003KT 1SM BR FEW001 BKN003
     FM031600 16005KT 3SM BR BKN008 OVC012
     FM031700 VRB03KT P6SM SCT012 BKN025
     FM031800 31007KT P6SM VCSH SCT040=



000
FTUS46 KPQR 031356 AAB
TAFEUG
TAF AMD
KEUG 031356Z 0314/0412 16003KT 1SM BR FEW001 BKN003
     FM031600 16005KT 3SM BR BKN008 OVC012
     FM031700 VRB03KT P6SM SCT012 BKN025
     FM031800 31007KT P6SM VCSH SCT040=



000
FTUS46 KPQR 031356 AAB
TAFEUG
TAF AMD
KEUG 031356Z 0314/0412 16003KT 1SM BR FEW001 BKN003
     FM031600 16005KT 3SM BR BKN008 OVC012
     FM031700 VRB03KT P6SM SCT012 BKN025
     FM031800 31007KT P6SM VCSH SCT040=



000
FTUS46 KPQR 031229 AAA
TAFEUG
TAF AMD
KEUG 031229Z 0312/0412 16003KT P6SM SCT040 BKN080
      TEMPO 0312/0315 1/4SM FG VV002
     FM031500 VRB03KT P6SM SCT025 BKN040
     FM031800 31007KT P6SM VCSH SCT040=



000
FTUS46 KPQR 031229 AAA
TAFEUG
TAF AMD
KEUG 031229Z 0312/0412 16003KT P6SM SCT040 BKN080
      TEMPO 0312/0315 1/4SM FG VV002
     FM031500 VRB03KT P6SM SCT025 BKN040
     FM031800 31007KT P6SM VCSH SCT040=



000
FTUS46 KPQR 031229 AAA
TAFEUG
TAF AMD
KEUG 031229Z 0312/0412 16003KT P6SM SCT040 BKN080
      TEMPO 0312/0315 1/4SM FG VV002
     FM031500 VRB03KT P6SM SCT025 BKN040
     FM031800 31007KT P6SM VCSH SCT040=



000
FTUS46 KPQR 031229 AAA
TAFEUG
TAF AMD
KEUG 031229Z 0312/0412 16003KT P6SM SCT040 BKN080
      TEMPO 0312/0315 1/4SM FG VV002
     FM031500 VRB03KT P6SM SCT025 BKN040
     FM031800 31007KT P6SM VCSH SCT040=



000
FTUS46 KPQR 031120
TAFTTD
TAF
KTTD 031120Z 0312/0412 VRB03KT P6SM SCT040 BKN080
     FM031500 VRB03KT P6SM SCT025 BKN040
      TEMPO 0316/0318 BKN025
     FM031800 27004KT P6SM VCSH SCT040=



000
FTUS46 KPQR 031120
TAFONP
TAF
KONP 031120Z 0312/0412 VRB03KT 6SM BR SKC
      TEMPO 0312/0315 5SM BR FEW002
     FM031800 33006KT P6SM SKC
     FM032000 34008KT P6SM FEW025
     FM040200 36003KT P6SM FEW025=



000
FTUS46 KPQR 031120
TAFAST
TAF
KAST 031120Z 0312/0412 12003KT 6SM BR FEW030
      TEMPO 0312/0315 5SM BR FEW002
     FM031800 26005KT P6SM FEW025
     FM032100 28008KT P6SM FEW030
     FM040100 30005KT P6SM FEW030=



000
FTUS46 KPQR 031120
TAFONP
TAF
KONP 031120Z 0312/0412 VRB03KT 6SM BR SKC
      TEMPO 0312/0315 5SM BR FEW002
     FM031800 33006KT P6SM SKC
     FM032000 34008KT P6SM FEW025
     FM040200 36003KT P6SM FEW025=



000
FTUS46 KPQR 031120
TAFHIO
TAF
KHIO 031120Z 0312/0412 VRB03KT P6SM SCT040 BKN080
     FM031500 VRB03KT P6SM SCT025 BKN040
     FM031800 31005KT P6SM VCSH SCT040=



000
FTUS46 KPQR 031120
TAFPDX
TAF
KPDX 031120Z 0312/0412 VRB03KT P6SM SCT040 BKN080
     FM031500 VRB03KT P6SM SCT025 BKN040
     FM031800 27004KT P6SM VCSH SCT040=



000
FTUS46 KPQR 031120
TAFAST
TAF
KAST 031120Z 0312/0412 12003KT 6SM BR FEW030
      TEMPO 0312/0315 5SM BR FEW002
     FM031800 26005KT P6SM FEW025
     FM032100 28008KT P6SM FEW030
     FM040100 30005KT P6SM FEW030=



000
FTUS46 KPQR 031120
TAFEUG
TAF
KEUG 031120Z 0312/0412 21003KT P6SM SCT040 BKN080
     FM031500 VRB03KT P6SM SCT025 BKN040
     FM031800 31007KT P6SM VCSH SCT040=



000
FTUS46 KPQR 031120
TAFSLE
TAF
KSLE 031120Z 0312/0412 VRB03KT P6SM SCT040 OVC080
     FM031500 VRB03KT P6SM SCT025 BKN040 OVC080
     FM031800 31006KT P6SM VCSH SCT040=



000
FTUS46 KPQR 031120
TAFEUG
TAF
KEUG 031120Z 0312/0412 21003KT P6SM SCT040 BKN080
     FM031500 VRB03KT P6SM SCT025 BKN040
     FM031800 31007KT P6SM VCSH SCT040=



000
FTUS46 KPQR 031120
TAFSLE
TAF
KSLE 031120Z 0312/0412 VRB03KT P6SM SCT040 OVC080
     FM031500 VRB03KT P6SM SCT025 BKN040 OVC080
     FM031800 31006KT P6SM VCSH SCT040=



000
FTUS46 KPQR 031120
TAFTTD
TAF
KTTD 031120Z 0312/0412 VRB03KT P6SM SCT040 BKN080
     FM031500 VRB03KT P6SM SCT025 BKN040
      TEMPO 0316/0318 BKN025
     FM031800 27004KT P6SM VCSH SCT040=



000
FTUS46 KPQR 031120
TAFTTD
TAF
KTTD 031120Z 0312/0412 VRB03KT P6SM SCT040 BKN080
     FM031500 VRB03KT P6SM SCT025 BKN040
      TEMPO 0316/0318 BKN025
     FM031800 27004KT P6SM VCSH SCT040=



000
FTUS46 KPQR 031120
TAFSLE
TAF
KSLE 031120Z 0312/0412 VRB03KT P6SM SCT040 OVC080
     FM031500 VRB03KT P6SM SCT025 BKN040 OVC080
     FM031800 31006KT P6SM VCSH SCT040=



000
FTUS46 KPQR 031120
TAFHIO
TAF
KHIO 031120Z 0312/0412 VRB03KT P6SM SCT040 BKN080
     FM031500 VRB03KT P6SM SCT025 BKN040
     FM031800 31005KT P6SM VCSH SCT040=



000
FTUS46 KPQR 031120
TAFONP
TAF
KONP 031120Z 0312/0412 VRB03KT 6SM BR SKC
      TEMPO 0312/0315 5SM BR FEW002
     FM031800 33006KT P6SM SKC
     FM032000 34008KT P6SM FEW025
     FM040200 36003KT P6SM FEW025=



000
FTUS46 KPQR 031120
TAFONP
TAF
KONP 031120Z 0312/0412 VRB03KT 6SM BR SKC
      TEMPO 0312/0315 5SM BR FEW002
     FM031800 33006KT P6SM SKC
     FM032000 34008KT P6SM FEW025
     FM040200 36003KT P6SM FEW025=



000
FTUS46 KPQR 031120
TAFPDX
TAF
KPDX 031120Z 0312/0412 VRB03KT P6SM SCT040 BKN080
     FM031500 VRB03KT P6SM SCT025 BKN040
     FM031800 27004KT P6SM VCSH SCT040=



000
FTUS46 KPQR 031120
TAFHIO
TAF
KHIO 031120Z 0312/0412 VRB03KT P6SM SCT040 BKN080
     FM031500 VRB03KT P6SM SCT025 BKN040
     FM031800 31005KT P6SM VCSH SCT040=



000
FTUS46 KPQR 031120
TAFAST
TAF
KAST 031120Z 0312/0412 12003KT 6SM BR FEW030
      TEMPO 0312/0315 5SM BR FEW002
     FM031800 26005KT P6SM FEW025
     FM032100 28008KT P6SM FEW030
     FM040100 30005KT P6SM FEW030=



000
FTUS46 KPQR 031120
TAFPDX
TAF
KPDX 031120Z 0312/0412 VRB03KT P6SM SCT040 BKN080
     FM031500 VRB03KT P6SM SCT025 BKN040
     FM031800 27004KT P6SM VCSH SCT040=



000
FTUS46 KPQR 031120
TAFHIO
TAF
KHIO 031120Z 0312/0412 VRB03KT P6SM SCT040 BKN080
     FM031500 VRB03KT P6SM SCT025 BKN040
     FM031800 31005KT P6SM VCSH SCT040=



000
FTUS46 KPQR 031120
TAFPDX
TAF
KPDX 031120Z 0312/0412 VRB03KT P6SM SCT040 BKN080
     FM031500 VRB03KT P6SM SCT025 BKN040
     FM031800 27004KT P6SM VCSH SCT040=



000
FTUS46 KPQR 031120
TAFAST
TAF
KAST 031120Z 0312/0412 12003KT 6SM BR FEW030
      TEMPO 0312/0315 5SM BR FEW002
     FM031800 26005KT P6SM FEW025
     FM032100 28008KT P6SM FEW030
     FM040100 30005KT P6SM FEW030=



000
FTUS46 KPQR 031120
TAFSLE
TAF
KSLE 031120Z 0312/0412 VRB03KT P6SM SCT040 OVC080
     FM031500 VRB03KT P6SM SCT025 BKN040 OVC080
     FM031800 31006KT P6SM VCSH SCT040=



000
FTUS46 KPQR 031120
TAFEUG
TAF
KEUG 031120Z 0312/0412 21003KT P6SM SCT040 BKN080
     FM031500 VRB03KT P6SM SCT025 BKN040
     FM031800 31007KT P6SM VCSH SCT040=



000
FTUS46 KPQR 031120
TAFEUG
TAF
KEUG 031120Z 0312/0412 21003KT P6SM SCT040 BKN080
     FM031500 VRB03KT P6SM SCT025 BKN040
     FM031800 31007KT P6SM VCSH SCT040=



000
FTUS46 KPQR 031120
TAFTTD
TAF
KTTD 031120Z 0312/0412 VRB03KT P6SM SCT040 BKN080
     FM031500 VRB03KT P6SM SCT025 BKN040
      TEMPO 0316/0318 BKN025
     FM031800 27004KT P6SM VCSH SCT040=



000
FTUS46 KPQR 031039 AAB
TAFPDX
TAF AMD
KPDX 031039Z 0311/0406 VRB03KT P6SM SCT040 BKN080
     FM031500 VRB03KT P6SM SCT025 BKN040
      TEMPO 0315/0318 BKN025 OVC040
     FM031800 27004KT P6SM VCSH SCT040=



000
FTUS46 KPQR 031039 AAB
TAFPDX
TAF AMD
KPDX 031039Z 0311/0406 VRB03KT P6SM SCT040 BKN080
     FM031500 VRB03KT P6SM SCT025 BKN040
      TEMPO 0315/0318 BKN025 OVC040
     FM031800 27004KT P6SM VCSH SCT040=



000
FTUS46 KPQR 031008 AAB
TAFSLE
TAF AMD
KSLE 031008Z 0310/0406 VRB03KT P6SM SCT040 OVC080
     FM031500 VRB03KT P6SM SCT025 BKN040 OVC080
     FM031800 31006KT P6SM VCSH SCT040=



000
FTUS46 KPQR 031008 AAB
TAFSLE
TAF AMD
KSLE 031008Z 0310/0406 VRB03KT P6SM SCT040 OVC080
     FM031500 VRB03KT P6SM SCT025 BKN040 OVC080
     FM031800 31006KT P6SM VCSH SCT040=



000
FTUS46 KPQR 031008 AAB
TAFSLE
TAF AMD
KSLE 031008Z 0310/0406 VRB03KT P6SM SCT040 OVC080
     FM031500 VRB03KT P6SM SCT025 BKN040 OVC080
     FM031800 31006KT P6SM VCSH SCT040=



000
FTUS46 KPQR 031008 AAB
TAFSLE
TAF AMD
KSLE 031008Z 0310/0406 VRB03KT P6SM SCT040 OVC080
     FM031500 VRB03KT P6SM SCT025 BKN040 OVC080
     FM031800 31006KT P6SM VCSH SCT040=



000
FTUS46 KPQR 031006 AAA
TAFAST
TAF AMD
KAST 031006Z 0310/0406 12003KT 6SM BR FEW030
      TEMPO 0312/0315 5SM BR FEW002
     FM031800 26005KT P6SM FEW025
     FM032100 28008KT P6SM FEW030
     FM040100 30005KT P6SM FEW030=



000
FTUS46 KPQR 031006 AAA
TAFAST
TAF AMD
KAST 031006Z 0310/0406 12003KT 6SM BR FEW030
      TEMPO 0312/0315 5SM BR FEW002
     FM031800 26005KT P6SM FEW025
     FM032100 28008KT P6SM FEW030
     FM040100 30005KT P6SM FEW030=



000
FTUS46 KPQR 031005 AAB
TAFONP
TAF AMD
KONP 031005Z 0310/0406 VRB03KT 6SM BR SKC
      TEMPO 0311/0315 5SM BR FEW002
     FM031800 33006KT P6SM SKC
     FM032000 34008KT P6SM FEW025
     FM040200 36003KT P6SM FEW025=



000
FTUS46 KPQR 031005 AAB
TAFONP
TAF AMD
KONP 031005Z 0310/0406 VRB03KT 6SM BR SKC
      TEMPO 0311/0315 5SM BR FEW002
     FM031800 33006KT P6SM SKC
     FM032000 34008KT P6SM FEW025
     FM040200 36003KT P6SM FEW025=



000
FTUS46 KPQR 031003 AAA
TAFONP
TAF AMD
KONP 031003Z 0310/0406 VRB03KT 6SM BR SKC
      TEMPO 0311/0315 5SM BR FEW002
     FM031800 26006KT P6SM SKC=



000
FTUS46 KPQR 031003 AAA
TAFONP
TAF AMD
KONP 031003Z 0310/0406 VRB03KT 6SM BR SKC
      TEMPO 0311/0315 5SM BR FEW002
     FM031800 26006KT P6SM SKC=



000
FTUS46 KPQR 031003 AAA
TAFONP
TAF AMD
KONP 031003Z 0310/0406 VRB03KT 6SM BR SKC
      TEMPO 0311/0315 5SM BR FEW002
     FM031800 26006KT P6SM SKC=



000
FTUS46 KPQR 031003 AAA
TAFONP
TAF AMD
KONP 031003Z 0310/0406 VRB03KT 6SM BR SKC
      TEMPO 0311/0315 5SM BR FEW002
     FM031800 26006KT P6SM SKC=



000
FTUS46 KPQR 031002 AAA
TAFEUG
TAF AMD
KEUG 031002Z 0310/0406 21003KT P6SM SCT040 BKN080
     FM031500 VRB03KT P6SM SCT025 BKN040
     FM031800 31007KT P6SM VCSH SCT040=



000
FTUS46 KPQR 031002 AAA
TAFEUG
TAF AMD
KEUG 031002Z 0310/0406 21003KT P6SM SCT040 BKN080
     FM031500 VRB03KT P6SM SCT025 BKN040
     FM031800 31007KT P6SM VCSH SCT040=



000
FTUS46 KPQR 031001 AAA
TAFSLE
TAF AMD
KSLE 031001Z 0310/0406 VRB03KT P6SM SCT040 OVC080
     FM031500 VRB03KT P6SM SCT025 BKN040 OVC080
     FM031800 27004KT P6SM VCSH SCT040=



000
FTUS46 KPQR 031001 AAA
TAFSLE
TAF AMD
KSLE 031001Z 0310/0406 VRB03KT P6SM SCT040 OVC080
     FM031500 VRB03KT P6SM SCT025 BKN040 OVC080
     FM031800 27004KT P6SM VCSH SCT040=



000
FTUS46 KPQR 030959 AAA
TAFTTD
TAF AMD
KTTD 030959Z 0310/0406 VRB03KT P6SM SCT040 BKN080
     FM031500 VRB03KT P6SM SCT025 BKN040
      TEMPO 0316/0318 BKN025
     FM031800 27004KT P6SM VCSH SCT040=



000
FTUS46 KPQR 030959 AAA
TAFTTD
TAF AMD
KTTD 030959Z 0310/0406 VRB03KT P6SM SCT040 BKN080
     FM031500 VRB03KT P6SM SCT025 BKN040
      TEMPO 0316/0318 BKN025
     FM031800 27004KT P6SM VCSH SCT040=



000
FTUS46 KPQR 030958 AAA
TAFHIO
TAF AMD
KHIO 030958Z 0310/0406 VRB03KT P6SM SCT040 BKN080
     FM031500 VRB03KT P6SM SCT025 BKN040
     FM031800 31005KT P6SM VCSH SCT040=



000
FTUS46 KPQR 030958 AAA
TAFHIO
TAF AMD
KHIO 030958Z 0310/0406 VRB03KT P6SM SCT040 BKN080
     FM031500 VRB03KT P6SM SCT025 BKN040
     FM031800 31005KT P6SM VCSH SCT040=



000
FTUS46 KPQR 030850 AAA
TAFPDX
TAF AMD
KPDX 030850Z 0309/0406 VRB03KT P6SM SCT040 BKN080
     FM031500 VRB03KT P6SM SCT025 BKN040
     FM031800 27004KT P6SM VCSH SCT040=



000
FTUS46 KPQR 030850 AAA
TAFPDX
TAF AMD
KPDX 030850Z 0309/0406 VRB03KT P6SM SCT040 BKN080
     FM031500 VRB03KT P6SM SCT025 BKN040
     FM031800 27004KT P6SM VCSH SCT040=



000
FTUS46 KPQR 030850 AAA
TAFPDX
TAF AMD
KPDX 030850Z 0309/0406 VRB03KT P6SM SCT040 BKN080
     FM031500 VRB03KT P6SM SCT025 BKN040
     FM031800 27004KT P6SM VCSH SCT040=



000
FTUS46 KPQR 030850 AAA
TAFPDX
TAF AMD
KPDX 030850Z 0309/0406 VRB03KT P6SM SCT040 BKN080
     FM031500 VRB03KT P6SM SCT025 BKN040
     FM031800 27004KT P6SM VCSH SCT040=



000
FTUS46 KPQR 030520
TAFONP
TAF
KONP 030520Z 0306/0406 VRB02KT 4SM BR SKC
     FM031800 26006KT P6SM SKC=



000
FTUS46 KPQR 030520
TAFEUG
TAF
KEUG 030520Z 0306/0406 28008KT P6SM SCT060
     FM030900 VRB03KT P6SM SKC
     FM031800 32005KT P6SM BKN100=



000
FTUS46 KPQR 030520
TAFSLE
TAF
KSLE 030520Z 0306/0406 26005KT P6SM FEW070
     FM031800 24003KT P6SM SCT050=



000
FTUS46 KPQR 030520
TAFHIO
TAF
KHIO 030520Z 0306/0406 VRB03KT P6SM FEW090
     FM031800 24005KT P6SM VCSH SCT050=



000
FTUS46 KPQR 030520
TAFAST
TAF
KAST 030520Z 0306/0406 21004KT P6SM VCSH SCT035
     FM031800 25006KT P6SM FEW250=



000
FTUS46 KPQR 030520
TAFSLE
TAF
KSLE 030520Z 0306/0406 26005KT P6SM FEW070
     FM031800 24003KT P6SM SCT050=



000
FTUS46 KPQR 030520
TAFHIO
TAF
KHIO 030520Z 0306/0406 VRB03KT P6SM FEW090
     FM031800 24005KT P6SM VCSH SCT050=



000
FTUS46 KPQR 030520
TAFAST
TAF
KAST 030520Z 0306/0406 21004KT P6SM VCSH SCT035
     FM031800 25006KT P6SM FEW250=



000
FTUS46 KPQR 030520
TAFONP
TAF
KONP 030520Z 0306/0406 VRB02KT 4SM BR SKC
     FM031800 26006KT P6SM SKC=



000
FTUS46 KPQR 030520
TAFTTD
TAF
KTTD 030520Z 0306/0406 VRB03KT P6SM SCT060
     FM031400 VRB03KT P6SM BKN015
     FM031800 23005KT P6SM VCSH SCT050=



000
FTUS46 KPQR 030520
TAFTTD
TAF
KTTD 030520Z 0306/0406 VRB03KT P6SM SCT060
     FM031400 VRB03KT P6SM BKN015
     FM031800 23005KT P6SM VCSH SCT050=



000
FTUS46 KPQR 030520
TAFPDX
TAF
KPDX 030520Z 0306/0406 VRB03KT P6SM SCT060
     FM031500 VRB03KT P6SM BKN015
     FM031800 27004KT P6SM VCSH SCT050=



000
FTUS46 KPQR 030520
TAFPDX
TAF
KPDX 030520Z 0306/0406 VRB03KT P6SM SCT060
     FM031500 VRB03KT P6SM BKN015
     FM031800 27004KT P6SM VCSH SCT050=



000
FTUS46 KPQR 030520
TAFSLE
TAF
KSLE 030520Z 0306/0406 26005KT P6SM FEW070
     FM031800 24003KT P6SM SCT050=



000
FTUS46 KPQR 030520
TAFEUG
TAF
KEUG 030520Z 0306/0406 28008KT P6SM SCT060
     FM030900 VRB03KT P6SM SKC
     FM031800 32005KT P6SM BKN100=



000
FTUS46 KPQR 030520
TAFEUG
TAF
KEUG 030520Z 0306/0406 28008KT P6SM SCT060
     FM030900 VRB03KT P6SM SKC
     FM031800 32005KT P6SM BKN100=



000
FTUS46 KPQR 030520
TAFAST
TAF
KAST 030520Z 0306/0406 21004KT P6SM VCSH SCT035
     FM031800 25006KT P6SM FEW250=



000
FTUS46 KPQR 030520
TAFHIO
TAF
KHIO 030520Z 0306/0406 VRB03KT P6SM FEW090
     FM031800 24005KT P6SM VCSH SCT050=



000
FTUS46 KPQR 030520
TAFTTD
TAF
KTTD 030520Z 0306/0406 VRB03KT P6SM SCT060
     FM031400 VRB03KT P6SM BKN015
     FM031800 23005KT P6SM VCSH SCT050=



000
FTUS46 KPQR 030520
TAFSLE
TAF
KSLE 030520Z 0306/0406 26005KT P6SM FEW070
     FM031800 24003KT P6SM SCT050=



000
FTUS46 KPQR 030520
TAFONP
TAF
KONP 030520Z 0306/0406 VRB02KT 4SM BR SKC
     FM031800 26006KT P6SM SKC=



000
FTUS46 KPQR 030520
TAFHIO
TAF
KHIO 030520Z 0306/0406 VRB03KT P6SM FEW090
     FM031800 24005KT P6SM VCSH SCT050=



000
FTUS46 KPQR 030520
TAFONP
TAF
KONP 030520Z 0306/0406 VRB02KT 4SM BR SKC
     FM031800 26006KT P6SM SKC=



000
FTUS46 KPQR 030520
TAFPDX
TAF
KPDX 030520Z 0306/0406 VRB03KT P6SM SCT060
     FM031500 VRB03KT P6SM BKN015
     FM031800 27004KT P6SM VCSH SCT050=



000
FTUS46 KPQR 030520
TAFPDX
TAF
KPDX 030520Z 0306/0406 VRB03KT P6SM SCT060
     FM031500 VRB03KT P6SM BKN015
     FM031800 27004KT P6SM VCSH SCT050=



000
FTUS46 KPQR 030520
TAFAST
TAF
KAST 030520Z 0306/0406 21004KT P6SM VCSH SCT035
     FM031800 25006KT P6SM FEW250=



000
FTUS46 KPQR 030520
TAFTTD
TAF
KTTD 030520Z 0306/0406 VRB03KT P6SM SCT060
     FM031400 VRB03KT P6SM BKN015
     FM031800 23005KT P6SM VCSH SCT050=



000
FTUS46 KPQR 030259 AAA
TAFTTD
TAF AMD
KTTD 030259Z 0303/0324 31012KT P6SM -SHRA BKN050
     FM030400 31008KT P6SM SCT050
     FM030700 18005KT P6SM SKC
     FM031400 VRB03KT P6SM BKN015
     FM031800 23005KT P6SM SCT050=



000
FTUS46 KPQR 030259 AAA
TAFTTD
TAF AMD
KTTD 030259Z 0303/0324 31012KT P6SM -SHRA BKN050
     FM030400 31008KT P6SM SCT050
     FM030700 18005KT P6SM SKC
     FM031400 VRB03KT P6SM BKN015
     FM031800 23005KT P6SM SCT050=



000
FTUS46 KPQR 030259 AAA
TAFTTD
TAF AMD
KTTD 030259Z 0303/0324 31012KT P6SM -SHRA BKN050
     FM030400 31008KT P6SM SCT050
     FM030700 18005KT P6SM SKC
     FM031400 VRB03KT P6SM BKN015
     FM031800 23005KT P6SM SCT050=



000
FTUS46 KPQR 030203 AAA
TAFPDX
TAF AMD
KPDX 030203Z 0302/0324 31007KT P6SM -SHRA BKN060
     FM030300 31007KT P6SM SCT060
     FM030700 VRB03KT P6SM SCT060
     FM031500 VRB03KT P6SM BKN015
     FM031800 27004KT P6SM BKN050=



000
FTUS46 KPQR 030203 AAA
TAFPDX
TAF AMD
KPDX 030203Z 0302/0324 31007KT P6SM -SHRA BKN060
     FM030300 31007KT P6SM SCT060
     FM030700 VRB03KT P6SM SCT060
     FM031500 VRB03KT P6SM BKN015
     FM031800 27004KT P6SM BKN050=



000
FTUS46 KPQR 030107 AAA
TAFHIO
TAF AMD
KHIO 030107Z 0301/0324 28010KT P6SM SCT080
     FM030700 VRB03KT P6SM SKC
     FM031800 24005KT P6SM SCT050=



000
FTUS46 KPQR 030107 AAA
TAFHIO
TAF AMD
KHIO 030107Z 0301/0324 28010KT P6SM SCT080
     FM030700 VRB03KT P6SM SKC
     FM031800 24005KT P6SM SCT050=



000
FTUS46 KPQR 030107 AAA
TAFHIO
TAF AMD
KHIO 030107Z 0301/0324 28010KT P6SM SCT080
     FM030700 VRB03KT P6SM SKC
     FM031800 24005KT P6SM SCT050=



000
FTUS46 KPQR 030107 AAA
TAFHIO
TAF AMD
KHIO 030107Z 0301/0324 28010KT P6SM SCT080
     FM030700 VRB03KT P6SM SKC
     FM031800 24005KT P6SM SCT050=



000
FTUS46 KPQR 022322
TAFAST
TAF
KAST 022322Z 0300/0324 24009KT P6SM VCSH BKN050 BKN070
     FM030500 21004KT P6SM VCSH SCT013 BKN023 BKN030
     FM031800 25006KT P6SM FEW250=



000
FTUS46 KPQR 022322
TAFPDX
TAF
KPDX 022322Z 0300/0324 31007KT P6SM SCT060 SCT090
     FM030700 VRB03KT P6SM SCT060
     FM031500 VRB03KT P6SM BKN015
     FM031800 27004KT P6SM BKN050=



000
FTUS46 KPQR 022322
TAFPDX
TAF
KPDX 022322Z 0300/0324 31007KT P6SM SCT060 SCT090
     FM030700 VRB03KT P6SM SCT060
     FM031500 VRB03KT P6SM BKN015
     FM031800 27004KT P6SM BKN050=



000
FTUS46 KPQR 022322
TAFHIO
TAF
KHIO 022322Z 0300/0324 30010KT P6SM SCT080
     FM030700 VRB03KT P6SM SKC
     FM031800 24005KT P6SM SCT050=



000
FTUS46 KPQR 022322
TAFTTD
TAF
KTTD 022322Z 0300/0324 31007KT P6SM SCT080
     FM030700 18005KT P6SM SKC
     FM031400 VRB03KT P6SM BKN015
     FM031800 23005KT P6SM SCT050=



000
FTUS46 KPQR 022322
TAFAST
TAF
KAST 022322Z 0300/0324 24009KT P6SM VCSH BKN050 BKN070
     FM030500 21004KT P6SM VCSH SCT013 BKN023 BKN030
     FM031800 25006KT P6SM FEW250=



000
FTUS46 KPQR 022322
TAFAST
TAF
KAST 022322Z 0300/0324 24009KT P6SM VCSH BKN050 BKN070
     FM030500 21004KT P6SM VCSH SCT013 BKN023 BKN030
     FM031800 25006KT P6SM FEW250=



000
FTUS46 KPQR 022322
TAFEUG
TAF
KEUG 022322Z 0300/0324 01008KT P6SM SCT035 BKN060
     FM030900 00000KT P6SM SCT025
     FM031800 32003KT P6SM BKN100=



000
FTUS46 KPQR 022322
TAFEUG
TAF
KEUG 022322Z 0300/0324 01008KT P6SM SCT035 BKN060
     FM030900 00000KT P6SM SCT025
     FM031800 32003KT P6SM BKN100=



000
FTUS46 KPQR 022322
TAFONP
TAF
KONP 022322Z 0300/0324 29008KT P6SM VCSH SCT025 SCT050
     FM030600 VRB02KT 5SM BR VCSH SCT013 SCT025 BKN035
     FM031800 26006KT P6SM SKC=



000
FTUS46 KPQR 022322
TAFHIO
TAF
KHIO 022322Z 0300/0324 30010KT P6SM SCT080
     FM030700 VRB03KT P6SM SKC
     FM031800 24005KT P6SM SCT050=



000
FTUS46 KPQR 022322
TAFTTD
TAF
KTTD 022322Z 0300/0324 31007KT P6SM SCT080
     FM030700 18005KT P6SM SKC
     FM031400 VRB03KT P6SM BKN015
     FM031800 23005KT P6SM SCT050=



000
FTUS46 KPQR 022322
TAFAST
TAF
KAST 022322Z 0300/0324 24009KT P6SM VCSH BKN050 BKN070
     FM030500 21004KT P6SM VCSH SCT013 BKN023 BKN030
     FM031800 25006KT P6SM FEW250=



000
FTUS46 KPQR 022322
TAFONP
TAF
KONP 022322Z 0300/0324 29008KT P6SM VCSH SCT025 SCT050
     FM030600 VRB02KT 5SM BR VCSH SCT013 SCT025 BKN035
     FM031800 26006KT P6SM SKC=



000
FTUS46 KPQR 022322
TAFONP
TAF
KONP 022322Z 0300/0324 29008KT P6SM VCSH SCT025 SCT050
     FM030600 VRB02KT 5SM BR VCSH SCT013 SCT025 BKN035
     FM031800 26006KT P6SM SKC=



000
FTUS46 KPQR 022322
TAFEUG
TAF
KEUG 022322Z 0300/0324 01008KT P6SM SCT035 BKN060
     FM030900 00000KT P6SM SCT025
     FM031800 32003KT P6SM BKN100=



000
FTUS46 KPQR 022322
TAFSLE
TAF
KSLE 022322Z 0300/0324 26005KT P6SM VCSH BKN060
     FM030900 17004KT P6SM SCT030
     FM031800 24003KT P6SM BKN050=



000
FTUS46 KPQR 022322
TAFSLE
TAF
KSLE 022322Z 0300/0324 26005KT P6SM VCSH BKN060
     FM030900 17004KT P6SM SCT030
     FM031800 24003KT P6SM BKN050=



000
FTUS46 KPQR 022322
TAFONP
TAF
KONP 022322Z 0300/0324 29008KT P6SM VCSH SCT025 SCT050
     FM030600 VRB02KT 5SM BR VCSH SCT013 SCT025 BKN035
     FM031800 26006KT P6SM SKC=



000
FTUS46 KPQR 022322
TAFPDX
TAF
KPDX 022322Z 0300/0324 31007KT P6SM SCT060 SCT090
     FM030700 VRB03KT P6SM SCT060
     FM031500 VRB03KT P6SM BKN015
     FM031800 27004KT P6SM BKN050=



000
FTUS46 KPQR 022322
TAFHIO
TAF
KHIO 022322Z 0300/0324 30010KT P6SM SCT080
     FM030700 VRB03KT P6SM SKC
     FM031800 24005KT P6SM SCT050=



000
FTUS46 KPQR 022322
TAFTTD
TAF
KTTD 022322Z 0300/0324 31007KT P6SM SCT080
     FM030700 18005KT P6SM SKC
     FM031400 VRB03KT P6SM BKN015
     FM031800 23005KT P6SM SCT050=



000
FTUS46 KPQR 022322
TAFSLE
TAF
KSLE 022322Z 0300/0324 26005KT P6SM VCSH BKN060
     FM030900 17004KT P6SM SCT030
     FM031800 24003KT P6SM BKN050=



000
FTUS46 KPQR 022322
TAFEUG
TAF
KEUG 022322Z 0300/0324 01008KT P6SM SCT035 BKN060
     FM030900 00000KT P6SM SCT025
     FM031800 32003KT P6SM BKN100=



000
FTUS46 KPQR 022322
TAFPDX
TAF
KPDX 022322Z 0300/0324 31007KT P6SM SCT060 SCT090
     FM030700 VRB03KT P6SM SCT060
     FM031500 VRB03KT P6SM BKN015
     FM031800 27004KT P6SM BKN050=



000
FTUS46 KPQR 022322
TAFHIO
TAF
KHIO 022322Z 0300/0324 30010KT P6SM SCT080
     FM030700 VRB03KT P6SM SKC
     FM031800 24005KT P6SM SCT050=



000
FTUS46 KPQR 022322
TAFTTD
TAF
KTTD 022322Z 0300/0324 31007KT P6SM SCT080
     FM030700 18005KT P6SM SKC
     FM031400 VRB03KT P6SM BKN015
     FM031800 23005KT P6SM SCT050=



000
FTUS46 KPQR 022322
TAFSLE
TAF
KSLE 022322Z 0300/0324 26005KT P6SM VCSH BKN060
     FM030900 17004KT P6SM SCT030
     FM031800 24003KT P6SM BKN050=



000
FTUS46 KPQR 022207 AAC
TAFPDX
TAF AMD
KPDX 022207Z 0222/0318 25005KT P6SM VCSH BKN050 OVC060
     FM030000 31007KT P6SM VCSH BKN050 BKN080
     FM030700 18005KT P6SM SCT012 BKN025=



000
FTUS46 KPQR 022207 AAC
TAFPDX
TAF AMD
KPDX 022207Z 0222/0318 25005KT P6SM VCSH BKN050 OVC060
     FM030000 31007KT P6SM VCSH BKN050 BKN080
     FM030700 18005KT P6SM SCT012 BKN025=



000
FTUS46 KPQR 022207 AAA
TAFONP
TAF AMD
KONP 022207Z 0222/0318 29008KT P6SM VCSH SCT025 BKN050
     FM030700 21004KT P6SM SCT013 SCT025 BKN035=



000
FTUS46 KPQR 022207 AAA
TAFONP
TAF AMD
KONP 022207Z 0222/0318 29008KT P6SM VCSH SCT025 BKN050
     FM030700 21004KT P6SM SCT013 SCT025 BKN035=



000
FTUS46 KPQR 022059 AAB
TAFPDX
TAF AMD
KPDX 022059Z 0221/0318 25005KT P6SM VCSH BKN050 OVC060
      TEMPO 0221/0224 5SM -RA BR BKN025 OVC050
     FM030000 31007KT P6SM VCSH BKN050 BKN080
     FM030700 18005KT P6SM SCT012 BKN025=



000
FTUS46 KPQR 021901 AAA
TAFHIO
TAF AMD
KHIO 021901Z 0219/0318 31005KT P6SM VCSH SCT015 OVC060
      TEMPO 0219/0222 -SHRA BKN011 OVC050
     FM022200 30005KT P6SM VCSH SCT025 BKN050
     FM030100 30005KT P6SM VCSH BKN050 BKN080
     FM030700 VRB03KT P6SM SCT012 SCT025 BKN035=



000
FTUS46 KPQR 021901 AAA
TAFHIO
TAF AMD
KHIO 021901Z 0219/0318 31005KT P6SM VCSH SCT015 OVC060
      TEMPO 0219/0222 -SHRA BKN011 OVC050
     FM022200 30005KT P6SM VCSH SCT025 BKN050
     FM030100 30005KT P6SM VCSH BKN050 BKN080
     FM030700 VRB03KT P6SM SCT012 SCT025 BKN035=



000
FTUS46 KPQR 021901 AAA
TAFHIO
TAF AMD
KHIO 021901Z 0219/0318 31005KT P6SM VCSH SCT015 OVC060
      TEMPO 0219/0222 -SHRA BKN011 OVC050
     FM022200 30005KT P6SM VCSH SCT025 BKN050
     FM030100 30005KT P6SM VCSH BKN050 BKN080
     FM030700 VRB03KT P6SM SCT012 SCT025 BKN035=



000
FTUS46 KPQR 021901 AAA
TAFHIO
TAF AMD
KHIO 021901Z 0219/0318 31005KT P6SM VCSH SCT015 OVC060
      TEMPO 0219/0222 -SHRA BKN011 OVC050
     FM022200 30005KT P6SM VCSH SCT025 BKN050
     FM030100 30005KT P6SM VCSH BKN050 BKN080
     FM030700 VRB03KT P6SM SCT012 SCT025 BKN035=



000
FTUS46 KPQR 021739 CCA
TAFPDX
TAF COR
KPDX 021739Z 0218/0318 25005KT P6SM VCSH BKN050 OVC060
      TEMPO 0218/0222 5SM -RA BR BKN025 OVC050
     FM030000 31007KT P6SM VCSH BKN050 BKN080
     FM030700 18005KT P6SM SCT012 BKN025=



000
FTUS46 KPQR 021739 CCA
TAFPDX
TAF COR
KPDX 021739Z 0218/0318 25005KT P6SM VCSH BKN050 OVC060
      TEMPO 0218/0222 5SM -RA BR BKN025 OVC050
     FM030000 31007KT P6SM VCSH BKN050 BKN080
     FM030700 18005KT P6SM SCT012 BKN025=



000
FTUS46 KPQR 021731
TAFAST
TAF
KAST 021731Z 0218/0318 25009KT P6SM VCSH BKN050 BKN070
     FM030000 25009KT P6SM -SHRA BKN025 BKN040
     FM030500 21004KT P6SM -SHRA SCT013 BKN023 BKN030=



000
FTUS46 KPQR 021731
TAFPDX
TAF
KPDX 021731Z 0218/0318 25005KT P6SM VCSH BKN050 OVC060
      TEMPO 0218/0222 5SM -RA BR BKN025 OVC050
     FM030000 31007KT P6SM VCSH BKN050 BKN080
     FM030700 18005KT P6SM SCT012 BKN025=



000
FTUS46 KPQR 021731
TAFONP
TAF
KONP 021731Z 0218/0318 25008KT P6SM VCSH BKN050 OVC070
     FM022000 29008KT P6SM -SHRA BKN025 OVC035
     FM030100 25009KT P6SM VCSH SCT025 BKN040
     FM030700 21004KT P6SM SCT013 BKN023 BKN030=



000
FTUS46 KPQR 021731
TAFEUG
TAF
KEUG 021731Z 0218/0318 23008KT P6SM VCSH BKN025 OVC050
     FM022100 27008KT P6SM VCSH SCT030 BKN060
     FM030100 28007KT P6SM BKN050 BKN080
     FM030900 17004KT P6SM SCT025 BKN040=



000
FTUS46 KPQR 021731
TAFONP
TAF
KONP 021731Z 0218/0318 25008KT P6SM VCSH BKN050 OVC070
     FM022000 29008KT P6SM -SHRA BKN025 OVC035
     FM030100 25009KT P6SM VCSH SCT025 BKN040
     FM030700 21004KT P6SM SCT013 BKN023 BKN030=



000
FTUS46 KPQR 021731
TAFAST
TAF
KAST 021731Z 0218/0318 25009KT P6SM VCSH BKN050 BKN070
     FM030000 25009KT P6SM -SHRA BKN025 BKN040
     FM030500 21004KT P6SM -SHRA SCT013 BKN023 BKN030=



000
FTUS46 KPQR 021731
TAFEUG
TAF
KEUG 021731Z 0218/0318 23008KT P6SM VCSH BKN025 OVC050
     FM022100 27008KT P6SM VCSH SCT030 BKN060
     FM030100 28007KT P6SM BKN050 BKN080
     FM030900 17004KT P6SM SCT025 BKN040=



000
FTUS46 KPQR 021731
TAFSLE
TAF
KSLE 021731Z 0218/0318 26005KT P6SM VCSH SCT025 BKN035 OVC050
      TEMPO 0218/0222 -SHRA BKN025 OVC050
     FM030100 28007KT P6SM BKN050 BKN080
     FM030900 17004KT P6SM SCT030 BKN050=



000
FTUS46 KPQR 021731
TAFHIO
TAF
KHIO 021731Z 0218/0318 31005KT P6SM VCSH SCT015 OVC060
      TEMPO 0218/0222 -SHRA BKN006 BKN011 OVC050
     FM022200 30005KT P6SM VCSH SCT025 BKN050
     FM030100 30005KT P6SM VCSH BKN050 BKN080
     FM030700 VRB03KT P6SM SCT012 SCT025 BKN035=



000
FTUS46 KPQR 021731
TAFSLE
TAF
KSLE 021731Z 0218/0318 26005KT P6SM VCSH SCT025 BKN035 OVC050
      TEMPO 0218/0222 -SHRA BKN025 OVC050
     FM030100 28007KT P6SM BKN050 BKN080
     FM030900 17004KT P6SM SCT030 BKN050=



000
FTUS46 KPQR 021731
TAFTTD
TAF
KTTD 021731Z 0218/0318 25005KT P6SM VCSH SCT025 OVC060
      TEMPO 0218/0222 5SM -RA BR BKN016 BKN025 OVC050
     FM030000 31007KT P6SM VCSH BKN050 BKN080
     FM030700 18005KT P6SM SCT012 BKN025=



000
FTUS46 KPQR 021731
TAFPDX
TAF
KPDX 021731Z 0218/0318 25005KT P6SM VCSH BKN050 OVC060
      TEMPO 0218/0222 5SM -RA BR BKN025 OVC050
     FM030000 31007KT P6SM VCSH BKN050 BKN080
     FM030700 18005KT P6SM SCT012 BKN025=



000
FTUS46 KPQR 021731
TAFHIO
TAF
KHIO 021731Z 0218/0318 31005KT P6SM VCSH SCT015 OVC060
      TEMPO 0218/0222 -SHRA BKN006 BKN011 OVC050
     FM022200 30005KT P6SM VCSH SCT025 BKN050
     FM030100 30005KT P6SM VCSH BKN050 BKN080
     FM030700 VRB03KT P6SM SCT012 SCT025 BKN035=



000
FTUS46 KPQR 021731
TAFTTD
TAF
KTTD 021731Z 0218/0318 25005KT P6SM VCSH SCT025 OVC060
      TEMPO 0218/0222 5SM -RA BR BKN016 BKN025 OVC050
     FM030000 31007KT P6SM VCSH BKN050 BKN080
     FM030700 18005KT P6SM SCT012 BKN025=



000
FTUS46 KPQR 021731
TAFSLE
TAF
KSLE 021731Z 0218/0318 26005KT P6SM VCSH SCT025 BKN035 OVC050
      TEMPO 0218/0222 -SHRA BKN025 OVC050
     FM030100 28007KT P6SM BKN050 BKN080
     FM030900 17004KT P6SM SCT030 BKN050=



000
FTUS46 KPQR 021731
TAFEUG
TAF
KEUG 021731Z 0218/0318 23008KT P6SM VCSH BKN025 OVC050
     FM022100 27008KT P6SM VCSH SCT030 BKN060
     FM030100 28007KT P6SM BKN050 BKN080
     FM030900 17004KT P6SM SCT025 BKN040=



000
FTUS46 KPQR 021731
TAFHIO
TAF
KHIO 021731Z 0218/0318 31005KT P6SM VCSH SCT015 OVC060
      TEMPO 0218/0222 -SHRA BKN006 BKN011 OVC050
     FM022200 30005KT P6SM VCSH SCT025 BKN050
     FM030100 30005KT P6SM VCSH BKN050 BKN080
     FM030700 VRB03KT P6SM SCT012 SCT025 BKN035=



000
FTUS46 KPQR 021731
TAFSLE
TAF
KSLE 021731Z 0218/0318 26005KT P6SM VCSH SCT025 BKN035 OVC050
      TEMPO 0218/0222 -SHRA BKN025 OVC050
     FM030100 28007KT P6SM BKN050 BKN080
     FM030900 17004KT P6SM SCT030 BKN050=



000
FTUS46 KPQR 021731
TAFEUG
TAF
KEUG 021731Z 0218/0318 23008KT P6SM VCSH BKN025 OVC050
     FM022100 27008KT P6SM VCSH SCT030 BKN060
     FM030100 28007KT P6SM BKN050 BKN080
     FM030900 17004KT P6SM SCT025 BKN040=



000
FTUS46 KPQR 021731
TAFTTD
TAF
KTTD 021731Z 0218/0318 25005KT P6SM VCSH SCT025 OVC060
      TEMPO 0218/0222 5SM -RA BR BKN016 BKN025 OVC050
     FM030000 31007KT P6SM VCSH BKN050 BKN080
     FM030700 18005KT P6SM SCT012 BKN025=



000
FTUS46 KPQR 021731
TAFONP
TAF
KONP 021731Z 0218/0318 25008KT P6SM VCSH BKN050 OVC070
     FM022000 29008KT P6SM -SHRA BKN025 OVC035
     FM030100 25009KT P6SM VCSH SCT025 BKN040
     FM030700 21004KT P6SM SCT013 BKN023 BKN030=



000
FTUS46 KPQR 021731
TAFPDX
TAF
KPDX 021731Z 0218/0318 25005KT P6SM VCSH BKN050 OVC060
      TEMPO 0218/0222 5SM -RA BR BKN025 OVC050
     FM030000 31007KT P6SM VCSH BKN050 BKN080
     FM030700 18005KT P6SM SCT012 BKN025=



000
FTUS46 KPQR 021731
TAFTTD
TAF
KTTD 021731Z 0218/0318 25005KT P6SM VCSH SCT025 OVC060
      TEMPO 0218/0222 5SM -RA BR BKN016 BKN025 OVC050
     FM030000 31007KT P6SM VCSH BKN050 BKN080
     FM030700 18005KT P6SM SCT012 BKN025=



000
FTUS46 KPQR 021731
TAFAST
TAF
KAST 021731Z 0218/0318 25009KT P6SM VCSH BKN050 BKN070
     FM030000 25009KT P6SM -SHRA BKN025 BKN040
     FM030500 21004KT P6SM -SHRA SCT013 BKN023 BKN030=



000
FTUS46 KPQR 021731
TAFAST
TAF
KAST 021731Z 0218/0318 25009KT P6SM VCSH BKN050 BKN070
     FM030000 25009KT P6SM -SHRA BKN025 BKN040
     FM030500 21004KT P6SM -SHRA SCT013 BKN023 BKN030=



000
FTUS46 KPQR 021731
TAFONP
TAF
KONP 021731Z 0218/0318 25008KT P6SM VCSH BKN050 OVC070
     FM022000 29008KT P6SM -SHRA BKN025 OVC035
     FM030100 25009KT P6SM VCSH SCT025 BKN040
     FM030700 21004KT P6SM SCT013 BKN023 BKN030=



000
FTUS46 KPQR 021731
TAFHIO
TAF
KHIO 021731Z 0218/0318 31005KT P6SM VCSH SCT015 OVC060
      TEMPO 0218/0222 -SHRA BKN006 BKN011 OVC050
     FM022200 30005KT P6SM VCSH SCT025 BKN050
     FM030100 30005KT P6SM VCSH BKN050 BKN080
     FM030700 VRB03KT P6SM SCT012 SCT025 BKN035=



000
FTUS46 KPQR 021731
TAFPDX
TAF
KPDX 021731Z 0218/0318 25005KT P6SM VCSH BKN050 OVC060
      TEMPO 0218/0222 5SM -RA BR BKN025 OVC050
     FM030000 31007KT P6SM VCSH BKN050 BKN080
     FM030700 18005KT P6SM SCT012 BKN025=



000
FTUS46 KPQR 021630 AAA
TAFONP
TAF AMD
KONP 021630Z 0217/0312 18008KT P6SM -SHRA SCT008 OVC035
      TEMPO 0217/0218 5SM -SHRA BR SCT008 BKN012 OVC030
     FM022000 24007KT P6SM VCSH SCT015 OVC035
     FM030100 25009KT P6SM -SHRA BKN025 BKN040
     FM030700 21004KT P6SM -SHRA SCT013 BKN023 BKN030=



000
FTUS46 KPQR 021630 AAA
TAFONP
TAF AMD
KONP 021630Z 0217/0312 18008KT P6SM -SHRA SCT008 OVC035
      TEMPO 0217/0218 5SM -SHRA BR SCT008 BKN012 OVC030
     FM022000 24007KT P6SM VCSH SCT015 OVC035
     FM030100 25009KT P6SM -SHRA BKN025 BKN040
     FM030700 21004KT P6SM -SHRA SCT013 BKN023 BKN030=



000
FTUS46 KPQR 021623 AAA
TAFHIO
TAF AMD
KHIO 021623Z 0216/0312 29007KT P6SM -SHRA SCT011 BKN040 OVC050
      TEMPO 0216/0218 5SM -SHRA BR BKN006 BKN011 OVC080
     FM022200 26005KT P6SM VCSH SCT025 BKN050
     FM030100 30005KT P6SM VCSH BKN050 BKN080
     FM030700 VRB03KT P6SM -SHRA SCT012 SCT025 BKN035=



000
FTUS46 KPQR 021623 AAA
TAFHIO
TAF AMD
KHIO 021623Z 0216/0312 29007KT P6SM -SHRA SCT011 BKN040 OVC050
      TEMPO 0216/0218 5SM -SHRA BR BKN006 BKN011 OVC080
     FM022200 26005KT P6SM VCSH SCT025 BKN050
     FM030100 30005KT P6SM VCSH BKN050 BKN080
     FM030700 VRB03KT P6SM -SHRA SCT012 SCT025 BKN035=



000
FTUS46 KPQR 021623 AAA
TAFHIO
TAF AMD
KHIO 021623Z 0216/0312 29007KT P6SM -SHRA SCT011 BKN040 OVC050
      TEMPO 0216/0218 5SM -SHRA BR BKN006 BKN011 OVC080
     FM022200 26005KT P6SM VCSH SCT025 BKN050
     FM030100 30005KT P6SM VCSH BKN050 BKN080
     FM030700 VRB03KT P6SM -SHRA SCT012 SCT025 BKN035=



000
FTUS46 KPQR 021623 AAA
TAFHIO
TAF AMD
KHIO 021623Z 0216/0312 29007KT P6SM -SHRA SCT011 BKN040 OVC050
      TEMPO 0216/0218 5SM -SHRA BR BKN006 BKN011 OVC080
     FM022200 26005KT P6SM VCSH SCT025 BKN050
     FM030100 30005KT P6SM VCSH BKN050 BKN080
     FM030700 VRB03KT P6SM -SHRA SCT012 SCT025 BKN035=



    US Dept of Commerce
    National Oceanic and Atmospheric Administration
    National Weather Service
    1325 East West Highway
    Silver Spring, MD 20910
    Page Author: NWS Internet Services Team
Disclaimer
Information Quality
Credits
Glossary
Privacy Policy
Freedom of Information Act (FOIA)
About Us
Career Opportunities